<?xml version="1.0" encoding="utf-8"?>
<gpx xmlns:xsi="http://www.w3.org/2001/XMLSchema-instance" xmlns:xsd="http://www.w3.org/2001/XMLSchema" version="1.1" creator="Shapelink.com" xmlns="http://www.topografix.com/GPX/1/1" xmlns:gpxtpx="http://www.garmin.com/xmlschemas/TrackPointExtension/v1">
  <metadata>
    <name>Löpning 10.02 km, 2012-03-13</name>
    <desc></desc>
    <author><name>Dennis Rehn</name></author> 
    <time>2012-03-13T18:11:43Z</time>
  </metadata>
  <trk>
    <name>Löpning 10.02 km, 2012-03-13</name>
    <trkseg>
      <trkpt lat="60.0104521856" lon="23.5444476403">
        <ele>62.4</ele>
        <time>2012-03-13T18:11:43Z</time>
      </trkpt>
      <trkpt lat="60.010614543" lon="23.544323672">
        <ele>62.4</ele>
        <time>2012-03-13T18:11:50Z</time>
      </trkpt>
      <trkpt lat="60.0107781577" lon="23.5441774916">
        <ele>63.4</ele>
        <time>2012-03-13T18:11:56Z</time>
      </trkpt>
      <trkpt lat="60.0108988571" lon="23.5440562893">
        <ele>63.8</ele>
        <time>2012-03-13T18:12:00Z</time>
      </trkpt>
      <trkpt lat="60.0110703507" lon="23.5439150543">
        <ele>64.2</ele>
        <time>2012-03-13T18:12:06Z</time>
      </trkpt>
      <trkpt lat="60.0112473765" lon="23.5438113702">
        <ele>65.2</ele>
        <time>2012-03-13T18:12:11Z</time>
      </trkpt>
      <trkpt lat="60.0114443511" lon="23.5437398726">
        <ele>66</ele>
        <time>2012-03-13T18:12:18Z</time>
      </trkpt>
      <trkpt lat="60.0116604365" lon="23.5437163195">
        <ele>66.2</ele>
        <time>2012-03-13T18:12:24Z</time>
      </trkpt>
      <trkpt lat="60.0118297509" lon="23.5437085243">
        <ele>66.4</ele>
        <time>2012-03-13T18:12:29Z</time>
      </trkpt>
      <trkpt lat="60.0119894261" lon="23.5436901679">
        <ele>65.6</ele>
        <time>2012-03-13T18:12:34Z</time>
      </trkpt>
      <trkpt lat="60.012177935" lon="23.5436899165">
        <ele>65.2</ele>
        <time>2012-03-13T18:12:41Z</time>
      </trkpt>
      <trkpt lat="60.0123040826" lon="23.5437019026">
        <ele>65</ele>
        <time>2012-03-13T18:12:46Z</time>
      </trkpt>
      <trkpt lat="60.0124278833" lon="23.5437198399">
        <ele>64.8</ele>
        <time>2012-03-13T18:12:51Z</time>
      </trkpt>
      <trkpt lat="60.0125200003" lon="23.5437430577">
        <ele>64.8</ele>
        <time>2012-03-13T18:12:54Z</time>
      </trkpt>
      <trkpt lat="60.0128238442" lon="23.5437941035">
        <ele>64.6</ele>
        <time>2012-03-13T18:13:08Z</time>
      </trkpt>
      <trkpt lat="60.0129815078" lon="23.5438404554">
        <ele>64.6</ele>
        <time>2012-03-13T18:13:15Z</time>
      </trkpt>
      <trkpt lat="60.0131265146" lon="23.5438814429">
        <ele>64.6</ele>
        <time>2012-03-13T18:13:21Z</time>
      </trkpt>
      <trkpt lat="60.0132496447" lon="23.543924945">
        <ele>64.6</ele>
        <time>2012-03-13T18:13:26Z</time>
      </trkpt>
      <trkpt lat="60.0134021115" lon="23.5439593946">
        <ele>64.6</ele>
        <time>2012-03-13T18:13:31Z</time>
      </trkpt>
      <trkpt lat="60.0135167759" lon="23.5439937604">
        <ele>64.6</ele>
        <time>2012-03-13T18:13:36Z</time>
      </trkpt>
      <trkpt lat="60.0136961485" lon="23.5440479913">
        <ele>64.6</ele>
        <time>2012-03-13T18:13:44Z</time>
      </trkpt>
      <trkpt lat="60.0138726714" lon="23.5440933373">
        <ele>64.6</ele>
        <time>2012-03-13T18:13:51Z</time>
      </trkpt>
      <trkpt lat="60.0140213663" lon="23.5441366718">
        <ele>64.6</ele>
        <time>2012-03-13T18:13:56Z</time>
      </trkpt>
      <trkpt lat="60.0141610087" lon="23.5441883043">
        <ele>64.6</ele>
        <time>2012-03-13T18:14:02Z</time>
      </trkpt>
      <trkpt lat="60.0143494338" lon="23.5442253523">
        <ele>64.6</ele>
        <time>2012-03-13T18:14:09Z</time>
      </trkpt>
      <trkpt lat="60.0145215142" lon="23.54421345">
        <ele>63.8</ele>
        <time>2012-03-13T18:14:16Z</time>
      </trkpt>
      <trkpt lat="60.0146764956" lon="23.5441595543">
        <ele>63.2</ele>
        <time>2012-03-13T18:14:21Z</time>
      </trkpt>
      <trkpt lat="60.0148302196" lon="23.5440663476">
        <ele>62.8</ele>
        <time>2012-03-13T18:14:28Z</time>
      </trkpt>
      <trkpt lat="60.0149877993" lon="23.5439662677">
        <ele>62.8</ele>
        <time>2012-03-13T18:14:34Z</time>
      </trkpt>
      <trkpt lat="60.0151217421" lon="23.5438774196">
        <ele>62.6</ele>
        <time>2012-03-13T18:14:39Z</time>
      </trkpt>
      <trkpt lat="60.0153027073" lon="23.5437713886">
        <ele>62.6</ele>
        <time>2012-03-13T18:14:46Z</time>
      </trkpt>
      <trkpt lat="60.0154379912" lon="23.5436923472">
        <ele>62.6</ele>
        <time>2012-03-13T18:14:51Z</time>
      </trkpt>
      <trkpt lat="60.0156232312" lon="23.5435743301">
        <ele>62.6</ele>
        <time>2012-03-13T18:14:59Z</time>
      </trkpt>
      <trkpt lat="60.015809477" lon="23.5434820454">
        <ele>62.6</ele>
        <time>2012-03-13T18:15:06Z</time>
      </trkpt>
      <trkpt lat="60.0159559926" lon="23.543421109">
        <ele>62.6</ele>
        <time>2012-03-13T18:15:11Z</time>
      </trkpt>
      <trkpt lat="60.0161511232" lon="23.5433562331">
        <ele>62.6</ele>
        <time>2012-03-13T18:15:19Z</time>
      </trkpt>
      <trkpt lat="60.0163118043" lon="23.5433258068">
        <ele>62.6</ele>
        <time>2012-03-13T18:15:25Z</time>
      </trkpt>
      <trkpt lat="60.0164634328" lon="23.5432825562">
        <ele>61.6</ele>
        <time>2012-03-13T18:15:31Z</time>
      </trkpt>
      <trkpt lat="60.0166503492" lon="23.5432253916">
        <ele>61</ele>
        <time>2012-03-13T18:15:38Z</time>
      </trkpt>
      <trkpt lat="60.0168244413" lon="23.5431686461">
        <ele>60.6</ele>
        <time>2012-03-13T18:15:45Z</time>
      </trkpt>
      <trkpt lat="60.0169299694" lon="23.543141405">
        <ele>60.6</ele>
        <time>2012-03-13T18:15:49Z</time>
      </trkpt>
      <trkpt lat="60.0171123595" lon="23.5430902754">
        <ele>60.2</ele>
        <time>2012-03-13T18:15:56Z</time>
      </trkpt>
      <trkpt lat="60.0172680114" lon="23.5430447616">
        <ele>59.4</ele>
        <time>2012-03-13T18:16:01Z</time>
      </trkpt>
      <trkpt lat="60.017454844" lon="23.5429966495">
        <ele>58.8</ele>
        <time>2012-03-13T18:16:09Z</time>
      </trkpt>
      <trkpt lat="60.0176141001" lon="23.5429556621">
        <ele>58.6</ele>
        <time>2012-03-13T18:16:15Z</time>
      </trkpt>
      <trkpt lat="60.017761873" lon="23.542921883">
        <ele>58.6</ele>
        <time>2012-03-13T18:16:21Z</time>
      </trkpt>
      <trkpt lat="60.017938312" lon="23.5428718431">
        <ele>58.4</ele>
        <time>2012-03-13T18:16:28Z</time>
      </trkpt>
      <trkpt lat="60.0180751884" lon="23.542812583">
        <ele>57.6</ele>
        <time>2012-03-13T18:16:33Z</time>
      </trkpt>
      <trkpt lat="60.0182595064" lon="23.5427270038">
        <ele>57</ele>
        <time>2012-03-13T18:16:40Z</time>
      </trkpt>
      <trkpt lat="60.0184009928" lon="23.542593564">
        <ele>56.6</ele>
        <time>2012-03-13T18:16:45Z</time>
      </trkpt>
      <trkpt lat="60.0185632664" lon="23.5423514109">
        <ele>56.6</ele>
        <time>2012-03-13T18:16:53Z</time>
      </trkpt>
      <trkpt lat="60.018685726" lon="23.5421182264">
        <ele>56.4</ele>
        <time>2012-03-13T18:17:00Z</time>
      </trkpt>
      <trkpt lat="60.0187848839" lon="23.5418805157">
        <ele>56.4</ele>
        <time>2012-03-13T18:17:06Z</time>
      </trkpt>
      <trkpt lat="60.0188513523" lon="23.5417158952">
        <ele>56.4</ele>
        <time>2012-03-13T18:17:09Z</time>
      </trkpt>
      <trkpt lat="60.0189448105" lon="23.5414503566">
        <ele>56.4</ele>
        <time>2012-03-13T18:17:15Z</time>
      </trkpt>
      <trkpt lat="60.0190273722" lon="23.5412313376">
        <ele>56.4</ele>
        <time>2012-03-13T18:17:21Z</time>
      </trkpt>
      <trkpt lat="60.0191219201" lon="23.5410357879">
        <ele>56.8</ele>
        <time>2012-03-13T18:17:26Z</time>
      </trkpt>
      <trkpt lat="60.019266424" lon="23.5407832412">
        <ele>57.6</ele>
        <time>2012-03-13T18:17:33Z</time>
      </trkpt>
      <trkpt lat="60.0193634026" lon="23.5406088139">
        <ele>58.4</ele>
        <time>2012-03-13T18:17:38Z</time>
      </trkpt>
      <trkpt lat="60.0194630634" lon="23.5404448639">
        <ele>59.2</ele>
        <time>2012-03-13T18:17:43Z</time>
      </trkpt>
      <trkpt lat="60.0195629756" lon="23.5402801596">
        <ele>60</ele>
        <time>2012-03-13T18:17:48Z</time>
      </trkpt>
      <trkpt lat="60.0197849283" lon="23.539987296">
        <ele>61.8</ele>
        <time>2012-03-13T18:17:58Z</time>
      </trkpt>
      <trkpt lat="60.0200128322" lon="23.5396397824">
        <ele>62.4</ele>
        <time>2012-03-13T18:18:10Z</time>
      </trkpt>
      <trkpt lat="60.020145853" lon="23.5395073484">
        <ele>62.6</ele>
        <time>2012-03-13T18:18:15Z</time>
      </trkpt>
      <trkpt lat="60.0202488665" lon="23.539401485">
        <ele>62.6</ele>
        <time>2012-03-13T18:18:20Z</time>
      </trkpt>
      <trkpt lat="60.0203625251" lon="23.539256059">
        <ele>61.8</ele>
        <time>2012-03-13T18:18:25Z</time>
      </trkpt>
      <trkpt lat="60.0204990662" lon="23.5391074479">
        <ele>60.8</ele>
        <time>2012-03-13T18:18:31Z</time>
      </trkpt>
      <trkpt lat="60.0205896746" lon="23.5390066975">
        <ele>60</ele>
        <time>2012-03-13T18:18:34Z</time>
      </trkpt>
      <trkpt lat="60.0207072726" lon="23.5388685638">
        <ele>58.4</ele>
        <time>2012-03-13T18:18:41Z</time>
      </trkpt>
      <trkpt lat="60.0207258804" lon="23.5388339465">
        <ele>57.8</ele>
        <time>2012-03-13T18:18:45Z</time>
      </trkpt>
      <trkpt lat="60.0207260481" lon="23.5388031012">
        <ele>55.6</ele>
        <time>2012-03-13T18:18:54Z</time>
      </trkpt>
      <trkpt lat="60.0207625932" lon="23.538654071">
        <ele>51.4</ele>
        <time>2012-03-13T18:19:36Z</time>
      </trkpt>
      <trkpt lat="60.0208680375" lon="23.5385622053">
        <ele>50.8</ele>
        <time>2012-03-13T18:19:41Z</time>
      </trkpt>
      <trkpt lat="60.0209811931" lon="23.5384410031">
        <ele>49.8</ele>
        <time>2012-03-13T18:19:45Z</time>
      </trkpt>
      <trkpt lat="60.0210224321" lon="23.5383880295">
        <ele>49.4</ele>
        <time>2012-03-13T18:19:48Z</time>
      </trkpt>
      <trkpt lat="60.0210245275" lon="23.5383318707">
        <ele>48.8</ele>
        <time>2012-03-13T18:19:54Z</time>
      </trkpt>
      <trkpt lat="60.0210422972" lon="23.5383162804">
        <ele>47.4</ele>
        <time>2012-03-13T18:19:58Z</time>
      </trkpt>
      <trkpt lat="60.021184538" lon="23.5382347245">
        <ele>46.8</ele>
        <time>2012-03-13T18:20:03Z</time>
      </trkpt>
      <trkpt lat="60.0213473983" lon="23.5380835989">
        <ele>45.8</ele>
        <time>2012-03-13T18:20:09Z</time>
      </trkpt>
      <trkpt lat="60.0214020483" lon="23.5379643244">
        <ele>45.2</ele>
        <time>2012-03-13T18:20:11Z</time>
      </trkpt>
      <trkpt lat="60.02145871" lon="23.5376568763">
        <ele>44.4</ele>
        <time>2012-03-13T18:20:18Z</time>
      </trkpt>
      <trkpt lat="60.0214678462" lon="23.5376197445">
        <ele>44.2</ele>
        <time>2012-03-13T18:20:19Z</time>
      </trkpt>
      <trkpt lat="60.0214690197" lon="23.5376229296">
        <ele>43.4</ele>
        <time>2012-03-13T18:20:23Z</time>
      </trkpt>
      <trkpt lat="60.0214685168" lon="23.5376687786">
        <ele>42</ele>
        <time>2012-03-13T18:20:31Z</time>
      </trkpt>
      <trkpt lat="60.0214613922" lon="23.5377136218">
        <ele>41.6</ele>
        <time>2012-03-13T18:20:34Z</time>
      </trkpt>
      <trkpt lat="60.0214683491" lon="23.5377849518">
        <ele>41</ele>
        <time>2012-03-13T18:20:36Z</time>
      </trkpt>
      <trkpt lat="60.0215488154" lon="23.5377706187">
        <ele>40.2</ele>
        <time>2012-03-13T18:20:43Z</time>
      </trkpt>
      <trkpt lat="60.021624001" lon="23.5376311439">
        <ele>39.2</ele>
        <time>2012-03-13T18:20:46Z</time>
      </trkpt>
      <trkpt lat="60.0216465483" lon="23.5375927548">
        <ele>39</ele>
        <time>2012-03-13T18:20:48Z</time>
      </trkpt>
      <trkpt lat="60.021671694" lon="23.5375676091">
        <ele>38.8</ele>
        <time>2012-03-13T18:20:49Z</time>
      </trkpt>
      <trkpt lat="60.0218948202" lon="23.537326378">
        <ele>37</ele>
        <time>2012-03-13T18:20:58Z</time>
      </trkpt>
      <trkpt lat="60.0222279169" lon="23.5370400523">
        <ele>34.8</ele>
        <time>2012-03-13T18:21:10Z</time>
      </trkpt>
      <trkpt lat="60.0224209521" lon="23.5369507851">
        <ele>33.6</ele>
        <time>2012-03-13T18:21:16Z</time>
      </trkpt>
      <trkpt lat="60.022584902" lon="23.5369575744">
        <ele>32.2</ele>
        <time>2012-03-13T18:21:23Z</time>
      </trkpt>
      <trkpt lat="60.0227739139" lon="23.5370093746">
        <ele>30.2</ele>
        <time>2012-03-13T18:21:30Z</time>
      </trkpt>
      <trkpt lat="60.0229483412" lon="23.5371011564">
        <ele>28.2</ele>
        <time>2012-03-13T18:21:36Z</time>
      </trkpt>
      <trkpt lat="60.0231373531" lon="23.537203667">
        <ele>26.4</ele>
        <time>2012-03-13T18:21:44Z</time>
      </trkpt>
      <trkpt lat="60.0232410372" lon="23.537255551">
        <ele>25.6</ele>
        <time>2012-03-13T18:21:48Z</time>
      </trkpt>
      <trkpt lat="60.0233858764" lon="23.5373003941">
        <ele>24.6</ele>
        <time>2012-03-13T18:21:53Z</time>
      </trkpt>
      <trkpt lat="60.0235834378" lon="23.5373914216">
        <ele>23</ele>
        <time>2012-03-13T18:22:00Z</time>
      </trkpt>
      <trkpt lat="60.0237084119" lon="23.5374579738">
        <ele>21.8</ele>
        <time>2012-03-13T18:22:06Z</time>
      </trkpt>
      <trkpt lat="60.0238788159" lon="23.5375272922">
        <ele>20.8</ele>
        <time>2012-03-13T18:22:11Z</time>
      </trkpt>
      <trkpt lat="60.0240498905" lon="23.5375953532">
        <ele>19.2</ele>
        <time>2012-03-13T18:22:18Z</time>
      </trkpt>
      <trkpt lat="60.0241910417" lon="23.537634329">
        <ele>18.2</ele>
        <time>2012-03-13T18:22:23Z</time>
      </trkpt>
      <trkpt lat="60.0243549917" lon="23.5377016357">
        <ele>16.8</ele>
        <time>2012-03-13T18:22:29Z</time>
      </trkpt>
      <trkpt lat="60.0245042733" lon="23.5377654219">
        <ele>15.8</ele>
        <time>2012-03-13T18:22:35Z</time>
      </trkpt>
      <trkpt lat="60.0246375455" lon="23.5378062418">
        <ele>14.6</ele>
        <time>2012-03-13T18:22:41Z</time>
      </trkpt>
      <trkpt lat="60.0247733323" lon="23.5378652504">
        <ele>13</ele>
        <time>2012-03-13T18:22:46Z</time>
      </trkpt>
      <trkpt lat="60.0248957919" lon="23.5379193136">
        <ele>11.6</ele>
        <time>2012-03-13T18:22:51Z</time>
      </trkpt>
      <trkpt lat="60.0250871506" lon="23.5380007857">
        <ele>10.2</ele>
        <time>2012-03-13T18:22:59Z</time>
      </trkpt>
      <trkpt lat="60.0251418845" lon="23.5380076588">
        <ele>9.4</ele>
        <time>2012-03-13T18:23:01Z</time>
      </trkpt>
      <trkpt lat="60.0251835425" lon="23.5380582017">
        <ele>8.4</ele>
        <time>2012-03-13T18:23:07Z</time>
      </trkpt>
      <trkpt lat="60.0251912538" lon="23.5380962555">
        <ele>7.8</ele>
        <time>2012-03-13T18:23:12Z</time>
      </trkpt>
      <trkpt lat="60.0252484184" lon="23.5380746302">
        <ele>6.8</ele>
        <time>2012-03-13T18:23:18Z</time>
      </trkpt>
      <trkpt lat="60.025314384" lon="23.5381012008">
        <ele>6</ele>
        <time>2012-03-13T18:23:24Z</time>
      </trkpt>
      <trkpt lat="60.0253579698" lon="23.5381322139">
        <ele>5.6</ele>
        <time>2012-03-13T18:23:28Z</time>
      </trkpt>
      <trkpt lat="60.0254084289" lon="23.5381509893">
        <ele>5.4</ele>
        <time>2012-03-13T18:23:32Z</time>
      </trkpt>
      <trkpt lat="60.0255194052" lon="23.5381949943">
        <ele>5.2</ele>
        <time>2012-03-13T18:23:41Z</time>
      </trkpt>
      <trkpt lat="60.0255970216" lon="23.5382198047">
        <ele>5</ele>
        <time>2012-03-13T18:23:46Z</time>
      </trkpt>
      <trkpt lat="60.0256215806" lon="23.5382134345">
        <ele>5</ele>
        <time>2012-03-13T18:23:49Z</time>
      </trkpt>
      <trkpt lat="60.0256706985" lon="23.5382294439">
        <ele>5</ele>
        <time>2012-03-13T18:23:55Z</time>
      </trkpt>
      <trkpt lat="60.0256751409" lon="23.5382425197">
        <ele>5</ele>
        <time>2012-03-13T18:24:02Z</time>
      </trkpt>
      <trkpt lat="60.0256480674" lon="23.538338241">
        <ele>8.8</ele>
        <time>2012-03-13T18:25:15Z</time>
      </trkpt>
      <trkpt lat="60.0254589717" lon="23.5382314556">
        <ele>9.8</ele>
        <time>2012-03-13T18:25:21Z</time>
      </trkpt>
      <trkpt lat="60.0252817784" lon="23.5381327168">
        <ele>10.4</ele>
        <time>2012-03-13T18:25:26Z</time>
      </trkpt>
      <trkpt lat="60.0251397052" lon="23.5380582017">
        <ele>11</ele>
        <time>2012-03-13T18:25:30Z</time>
      </trkpt>
      <trkpt lat="60.0249602487" lon="23.5379718681">
        <ele>12</ele>
        <time>2012-03-13T18:25:35Z</time>
      </trkpt>
      <trkpt lat="60.0247523776" lon="23.5378782423">
        <ele>12.6</ele>
        <time>2012-03-13T18:25:41Z</time>
      </trkpt>
      <trkpt lat="60.0245853263" lon="23.5378005421">
        <ele>13</ele>
        <time>2012-03-13T18:25:46Z</time>
      </trkpt>
      <trkpt lat="60.0245544809" lon="23.5377866281">
        <ele>13</ele>
        <time>2012-03-13T18:25:47Z</time>
      </trkpt>
      <trkpt lat="60.0243792154" lon="23.5376954331">
        <ele>14</ele>
        <time>2012-03-13T18:25:51Z</time>
      </trkpt>
      <trkpt lat="60.0241955679" lon="23.5376179843">
        <ele>14.6</ele>
        <time>2012-03-13T18:25:57Z</time>
      </trkpt>
      <trkpt lat="60.0240192128" lon="23.5375366799">
        <ele>15.8</ele>
        <time>2012-03-13T18:26:02Z</time>
      </trkpt>
      <trkpt lat="60.0238322964" lon="23.5374459877">
        <ele>16.8</ele>
        <time>2012-03-13T18:26:08Z</time>
      </trkpt>
      <trkpt lat="60.023670861" lon="23.5373276353">
        <ele>18.2</ele>
        <time>2012-03-13T18:26:13Z</time>
      </trkpt>
      <trkpt lat="60.0235395166" lon="23.5372734882">
        <ele>19.2</ele>
        <time>2012-03-13T18:26:18Z</time>
      </trkpt>
      <trkpt lat="60.0233991198" lon="23.5372222748">
        <ele>20.4</ele>
        <time>2012-03-13T18:26:23Z</time>
      </trkpt>
      <trkpt lat="60.023233242" lon="23.5371427306">
        <ele>22</ele>
        <time>2012-03-13T18:26:29Z</time>
      </trkpt>
      <trkpt lat="60.0230314897" lon="23.5370480989">
        <ele>23.8</ele>
        <time>2012-03-13T18:26:36Z</time>
      </trkpt>
      <trkpt lat="60.0228583196" lon="23.5369554789">
        <ele>25.4</ele>
        <time>2012-03-13T18:26:42Z</time>
      </trkpt>
      <trkpt lat="60.0226630213" lon="23.5368851548">
        <ele>27</ele>
        <time>2012-03-13T18:26:48Z</time>
      </trkpt>
      <trkpt lat="60.0224888455" lon="23.53685959">
        <ele>28.2</ele>
        <time>2012-03-13T18:26:53Z</time>
      </trkpt>
      <trkpt lat="60.0223257337" lon="23.5368993202">
        <ele>30</ele>
        <time>2012-03-13T18:26:59Z</time>
      </trkpt>
      <trkpt lat="60.0221516416" lon="23.5369949577">
        <ele>31.4</ele>
        <time>2012-03-13T18:27:05Z</time>
      </trkpt>
      <trkpt lat="60.0219539964" lon="23.5371586562">
        <ele>33.2</ele>
        <time>2012-03-13T18:27:12Z</time>
      </trkpt>
      <trkpt lat="60.0217722768" lon="23.537336101">
        <ele>34.8</ele>
        <time>2012-03-13T18:27:19Z</time>
      </trkpt>
      <trkpt lat="60.0216208159" lon="23.5375096902">
        <ele>36</ele>
        <time>2012-03-13T18:27:25Z</time>
      </trkpt>
      <trkpt lat="60.0214478135" lon="23.5376912421">
        <ele>37.4</ele>
        <time>2012-03-13T18:27:31Z</time>
      </trkpt>
      <trkpt lat="60.0213323109" lon="23.537812612">
        <ele>38.2</ele>
        <time>2012-03-13T18:27:35Z</time>
      </trkpt>
      <trkpt lat="60.0211647567" lon="23.5379763944">
        <ele>39.6</ele>
        <time>2012-03-13T18:27:41Z</time>
      </trkpt>
      <trkpt lat="60.0210380224" lon="23.5381167912">
        <ele>41</ele>
        <time>2012-03-13T18:27:46Z</time>
      </trkpt>
      <trkpt lat="60.0209650999" lon="23.5382278514">
        <ele>41.8</ele>
        <time>2012-03-13T18:27:50Z</time>
      </trkpt>
      <trkpt lat="60.0209412114" lon="23.5382462077">
        <ele>41.8</ele>
        <time>2012-03-13T18:27:51Z</time>
      </trkpt>
      <trkpt lat="60.0207869007" lon="23.5383900411">
        <ele>43.2</ele>
        <time>2012-03-13T18:27:55Z</time>
      </trkpt>
      <trkpt lat="60.0207309934" lon="23.5384353872">
        <ele>43.8</ele>
        <time>2012-03-13T18:27:59Z</time>
      </trkpt>
      <trkpt lat="60.0207314963" lon="23.5384657297">
        <ele>45.4</ele>
        <time>2012-03-13T18:28:06Z</time>
      </trkpt>
      <trkpt lat="60.0207889123" lon="23.5384407516">
        <ele>46.6</ele>
        <time>2012-03-13T18:28:16Z</time>
      </trkpt>
      <trkpt lat="60.0208547941" lon="23.5383742832">
        <ele>47</ele>
        <time>2012-03-13T18:28:22Z</time>
      </trkpt>
      <trkpt lat="60.0209185803" lon="23.5383300267">
        <ele>48</ele>
        <time>2012-03-13T18:28:27Z</time>
      </trkpt>
      <trkpt lat="60.0209632558" lon="23.5382916376">
        <ele>48.6</ele>
        <time>2012-03-13T18:28:31Z</time>
      </trkpt>
      <trkpt lat="60.0210681134" lon="23.5381987662">
        <ele>49</ele>
        <time>2012-03-13T18:28:40Z</time>
      </trkpt>
      <trkpt lat="60.0210906607" lon="23.5381869477">
        <ele>49.2</ele>
        <time>2012-03-13T18:28:46Z</time>
      </trkpt>
      <trkpt lat="60.0211115317" lon="23.5381681722">
        <ele>50.2</ele>
        <time>2012-03-13T18:29:08Z</time>
      </trkpt>
      <trkpt lat="60.0211580512" lon="23.5381757159">
        <ele>52.8</ele>
        <time>2012-03-13T18:29:35Z</time>
      </trkpt>
      <trkpt lat="60.0211868011" lon="23.5381488939">
        <ele>53.2</ele>
        <time>2012-03-13T18:29:41Z</time>
      </trkpt>
      <trkpt lat="60.0212042355" lon="23.5381253407">
        <ele>53.4</ele>
        <time>2012-03-13T18:29:48Z</time>
      </trkpt>
      <trkpt lat="60.0212546107" lon="23.5380823416">
        <ele>53.4</ele>
        <time>2012-03-13T18:29:55Z</time>
      </trkpt>
      <trkpt lat="60.021304483" lon="23.5380046414">
        <ele>53.4</ele>
        <time>2012-03-13T18:30:03Z</time>
      </trkpt>
      <trkpt lat="60.021329964" lon="23.5379792442">
        <ele>53.4</ele>
        <time>2012-03-13T18:30:09Z</time>
      </trkpt>
      <trkpt lat="60.0213850331" lon="23.5379447946">
        <ele>53.6</ele>
        <time>2012-03-13T18:30:16Z</time>
      </trkpt>
      <trkpt lat="60.0213904813" lon="23.537928869">
        <ele>53.6</ele>
        <time>2012-03-13T18:30:17Z</time>
      </trkpt>
      <trkpt lat="60.0214204047" lon="23.5378665915">
        <ele>53.6</ele>
        <time>2012-03-13T18:30:21Z</time>
      </trkpt>
      <trkpt lat="60.0214300439" lon="23.5378368357">
        <ele>53.6</ele>
        <time>2012-03-13T18:30:23Z</time>
      </trkpt>
      <trkpt lat="60.0214553572" lon="23.537832058">
        <ele>53.6</ele>
        <time>2012-03-13T18:30:29Z</time>
      </trkpt>
      <trkpt lat="60.0214764796" lon="23.5378251849">
        <ele>53.6</ele>
        <time>2012-03-13T18:30:31Z</time>
      </trkpt>
      <trkpt lat="60.0215757213" lon="23.5376837822">
        <ele>52.4</ele>
        <time>2012-03-13T18:30:41Z</time>
      </trkpt>
      <trkpt lat="60.021607321" lon="23.5376350834">
        <ele>52</ele>
        <time>2012-03-13T18:30:47Z</time>
      </trkpt>
      <trkpt lat="60.0217115919" lon="23.5375199161">
        <ele>51.6</ele>
        <time>2012-03-13T18:30:56Z</time>
      </trkpt>
      <trkpt lat="60.0217993504" lon="23.5374246977">
        <ele>51.6</ele>
        <time>2012-03-13T18:31:00Z</time>
      </trkpt>
      <trkpt lat="60.021934299" lon="23.5372586523">
        <ele>51.4</ele>
        <time>2012-03-13T18:31:06Z</time>
      </trkpt>
      <trkpt lat="60.0220633802" lon="23.53715413">
        <ele>50.6</ele>
        <time>2012-03-13T18:31:11Z</time>
      </trkpt>
      <trkpt lat="60.0222165175" lon="23.5370144037">
        <ele>50</ele>
        <time>2012-03-13T18:31:17Z</time>
      </trkpt>
      <trkpt lat="60.0223934594" lon="23.5368909383">
        <ele>49.8</ele>
        <time>2012-03-13T18:31:24Z</time>
      </trkpt>
      <trkpt lat="60.0225553139" lon="23.5368617693">
        <ele>49.6</ele>
        <time>2012-03-13T18:31:30Z</time>
      </trkpt>
      <trkpt lat="60.022713648" lon="23.5368575783">
        <ele>48.8</ele>
        <time>2012-03-13T18:31:36Z</time>
      </trkpt>
      <trkpt lat="60.0228786038" lon="23.5369076183">
        <ele>48.2</ele>
        <time>2012-03-13T18:31:42Z</time>
      </trkpt>
      <trkpt lat="60.0229793543" lon="23.536951288">
        <ele>47.8</ele>
        <time>2012-03-13T18:31:46Z</time>
      </trkpt>
      <trkpt lat="60.0231241097" lon="23.5370023338">
        <ele>47.6</ele>
        <time>2012-03-13T18:31:51Z</time>
      </trkpt>
      <trkpt lat="60.0233017221" lon="23.5370740828">
        <ele>47.6</ele>
        <time>2012-03-13T18:31:58Z</time>
      </trkpt>
      <trkpt lat="60.0234691925" lon="23.5371617575">
        <ele>47.2</ele>
        <time>2012-03-13T18:32:04Z</time>
      </trkpt>
      <trkpt lat="60.0236552707" lon="23.5372560539">
        <ele>46.2</ele>
        <time>2012-03-13T18:32:11Z</time>
      </trkpt>
      <trkpt lat="60.0238418518" lon="23.537320343">
        <ele>45</ele>
        <time>2012-03-13T18:32:18Z</time>
      </trkpt>
      <trkpt lat="60.0240125072" lon="23.5373897452">
        <ele>44.2</ele>
        <time>2012-03-13T18:32:24Z</time>
      </trkpt>
      <trkpt lat="60.0241918799" lon="23.5374670263">
        <ele>42.8</ele>
        <time>2012-03-13T18:32:30Z</time>
      </trkpt>
      <trkpt lat="60.024367816" lon="23.5375453132">
        <ele>41.8</ele>
        <time>2012-03-13T18:32:36Z</time>
      </trkpt>
      <trkpt lat="60.0244962267" lon="23.5376156374">
        <ele>40.6</ele>
        <time>2012-03-13T18:32:41Z</time>
      </trkpt>
      <trkpt lat="60.024667888" lon="23.5376761547">
        <ele>38.8</ele>
        <time>2012-03-13T18:32:48Z</time>
      </trkpt>
      <trkpt lat="60.0246822211" lon="23.5376681919">
        <ele>38.6</ele>
        <time>2012-03-13T18:32:49Z</time>
      </trkpt>
      <trkpt lat="60.0247709854" lon="23.537683866">
        <ele>37.4</ele>
        <time>2012-03-13T18:32:52Z</time>
      </trkpt>
      <trkpt lat="60.0247933651" lon="23.5376971094">
        <ele>37.2</ele>
        <time>2012-03-13T18:32:53Z</time>
      </trkpt>
      <trkpt lat="60.0249432334" lon="23.5377650028">
        <ele>36</ele>
        <time>2012-03-13T18:33:00Z</time>
      </trkpt>
      <trkpt lat="60.0251242825" lon="23.5378443794">
        <ele>34</ele>
        <time>2012-03-13T18:33:08Z</time>
      </trkpt>
      <trkpt lat="60.0252677806" lon="23.5379190622">
        <ele>32.6</ele>
        <time>2012-03-13T18:33:13Z</time>
      </trkpt>
      <trkpt lat="60.0253583051" lon="23.5379695212">
        <ele>31.8</ele>
        <time>2012-03-13T18:33:17Z</time>
      </trkpt>
      <trkpt lat="60.0254140447" lon="23.5380021268">
        <ele>31.6</ele>
        <time>2012-03-13T18:33:19Z</time>
      </trkpt>
      <trkpt lat="60.0255795035" lon="23.5380909749">
        <ele>30.6</ele>
        <time>2012-03-13T18:33:25Z</time>
      </trkpt>
      <trkpt lat="60.0257055672" lon="23.538137243">
        <ele>29.6</ele>
        <time>2012-03-13T18:33:31Z</time>
      </trkpt>
      <trkpt lat="60.0257473091" lon="23.5381598741">
        <ele>28.8</ele>
        <time>2012-03-13T18:33:39Z</time>
      </trkpt>
      <trkpt lat="60.025761726" lon="23.5381401767">
        <ele>28.6</ele>
        <time>2012-03-13T18:33:48Z</time>
      </trkpt>
      <trkpt lat="60.0257565292" lon="23.5381700162">
        <ele>26.6</ele>
        <time>2012-03-13T18:34:05Z</time>
      </trkpt>
      <trkpt lat="60.0257124404" lon="23.5381550126">
        <ele>26.6</ele>
        <time>2012-03-13T18:34:06Z</time>
      </trkpt>
      <trkpt lat="60.0255141246" lon="23.5380892147">
        <ele>26.6</ele>
        <time>2012-03-13T18:34:12Z</time>
      </trkpt>
      <trkpt lat="60.0253340814" lon="23.5380146158">
        <ele>26.4</ele>
        <time>2012-03-13T18:34:17Z</time>
      </trkpt>
      <trkpt lat="60.0252640087" lon="23.5379935773">
        <ele>26.4</ele>
        <time>2012-03-13T18:34:19Z</time>
      </trkpt>
      <trkpt lat="60.0250495159" lon="23.5378889711">
        <ele>26.4</ele>
        <time>2012-03-13T18:34:25Z</time>
      </trkpt>
      <trkpt lat="60.0248691374" lon="23.5378131149">
        <ele>26.4</ele>
        <time>2012-03-13T18:34:30Z</time>
      </trkpt>
      <trkpt lat="60.024666966" lon="23.5377351633">
        <ele>26.4</ele>
        <time>2012-03-13T18:34:36Z</time>
      </trkpt>
      <trkpt lat="60.0244658842" lon="23.5376458122">
        <ele>26.4</ele>
        <time>2012-03-13T18:34:42Z</time>
      </trkpt>
      <trkpt lat="60.0242609468" lon="23.5375754881">
        <ele>26.4</ele>
        <time>2012-03-13T18:34:48Z</time>
      </trkpt>
      <trkpt lat="60.0237393411" lon="23.5373469975">
        <ele>28</ele>
        <time>2012-03-13T18:35:05Z</time>
      </trkpt>
      <trkpt lat="60.0235659196" lon="23.5372667827">
        <ele>28.2</ele>
        <time>2012-03-13T18:35:11Z</time>
      </trkpt>
      <trkpt lat="60.0233604792" lon="23.5371622604">
        <ele>29.4</ele>
        <time>2012-03-13T18:35:18Z</time>
      </trkpt>
      <trkpt lat="60.0231898238" lon="23.5370889188">
        <ele>30.4</ele>
        <time>2012-03-13T18:35:24Z</time>
      </trkpt>
      <trkpt lat="60.0230329984" lon="23.5370198519">
        <ele>31.4</ele>
        <time>2012-03-13T18:35:29Z</time>
      </trkpt>
      <trkpt lat="60.0228501892" lon="23.5369408106">
        <ele>32.6</ele>
        <time>2012-03-13T18:35:34Z</time>
      </trkpt>
      <trkpt lat="60.0226770191" lon="23.5368812153">
        <ele>33.6</ele>
        <time>2012-03-13T18:35:40Z</time>
      </trkpt>
      <trkpt lat="60.0225476864" lon="23.5368822211">
        <ele>34.4</ele>
        <time>2012-03-13T18:35:44Z</time>
      </trkpt>
      <trkpt lat="60.0223967284" lon="23.5368997393">
        <ele>35.6</ele>
        <time>2012-03-13T18:35:49Z</time>
      </trkpt>
      <trkpt lat="60.0222005919" lon="23.5370218636">
        <ele>36.8</ele>
        <time>2012-03-13T18:35:55Z</time>
      </trkpt>
      <trkpt lat="60.0219048785" lon="23.5372863125">
        <ele>38.8</ele>
        <time>2012-03-13T18:36:06Z</time>
      </trkpt>
      <trkpt lat="60.0217938183" lon="23.5373962831">
        <ele>39.6</ele>
        <time>2012-03-13T18:36:10Z</time>
      </trkpt>
      <trkpt lat="60.0216305389" lon="23.5375704589">
        <ele>41.4</ele>
        <time>2012-03-13T18:36:16Z</time>
      </trkpt>
      <trkpt lat="60.0214649126" lon="23.5377384322">
        <ele>43.2</ele>
        <time>2012-03-13T18:36:22Z</time>
      </trkpt>
      <trkpt lat="60.0212901499" lon="23.537907579">
        <ele>45</ele>
        <time>2012-03-13T18:36:28Z</time>
      </trkpt>
      <trkpt lat="60.0211284631" lon="23.5380910587">
        <ele>46.8</ele>
        <time>2012-03-13T18:36:34Z</time>
      </trkpt>
      <trkpt lat="60.0209977893" lon="23.5382344731">
        <ele>48.2</ele>
        <time>2012-03-13T18:36:39Z</time>
      </trkpt>
      <trkpt lat="60.0208428079" lon="23.538413259">
        <ele>49</ele>
        <time>2012-03-13T18:36:44Z</time>
      </trkpt>
      <trkpt lat="60.0207436501" lon="23.538498">
        <ele>50.2</ele>
        <time>2012-03-13T18:36:48Z</time>
      </trkpt>
      <trkpt lat="60.0207424766" lon="23.5385109919">
        <ele>50.4</ele>
        <time>2012-03-13T18:36:49Z</time>
      </trkpt>
      <trkpt lat="60.0207792731" lon="23.5384804818">
        <ele>51</ele>
        <time>2012-03-13T18:36:53Z</time>
      </trkpt>
      <trkpt lat="60.0208740724" lon="23.5383941483">
        <ele>51.8</ele>
        <time>2012-03-13T18:37:02Z</time>
      </trkpt>
      <trkpt lat="60.0209788462" lon="23.5382970859">
        <ele>52</ele>
        <time>2012-03-13T18:37:07Z</time>
      </trkpt>
      <trkpt lat="60.0211004675" lon="23.5381805774">
        <ele>51.2</ele>
        <time>2012-03-13T18:37:12Z</time>
      </trkpt>
      <trkpt lat="60.0212641661" lon="23.5380053119">
        <ele>50.8</ele>
        <time>2012-03-13T18:37:19Z</time>
      </trkpt>
      <trkpt lat="60.021441108" lon="23.5378257716">
        <ele>50.6</ele>
        <time>2012-03-13T18:37:25Z</time>
      </trkpt>
      <trkpt lat="60.0215865339" lon="23.5376557029">
        <ele>49.4</ele>
        <time>2012-03-13T18:37:31Z</time>
      </trkpt>
      <trkpt lat="60.0217571056" lon="23.5374656852">
        <ele>48.8</ele>
        <time>2012-03-13T18:37:38Z</time>
      </trkpt>
      <trkpt lat="60.021878727" lon="23.5373191696">
        <ele>48.6</ele>
        <time>2012-03-13T18:37:43Z</time>
      </trkpt>
      <trkpt lat="60.0220689123" lon="23.5371356898">
        <ele>48.4</ele>
        <time>2012-03-13T18:37:50Z</time>
      </trkpt>
      <trkpt lat="60.0221564193" lon="23.5370366995">
        <ele>48.4</ele>
        <time>2012-03-13T18:37:53Z</time>
      </trkpt>
      <trkpt lat="60.022287596" lon="23.536940643">
        <ele>48.2</ele>
        <time>2012-03-13T18:37:59Z</time>
      </trkpt>
      <trkpt lat="60.0223692358" lon="23.5368968056">
        <ele>48.2</ele>
        <time>2012-03-13T18:38:03Z</time>
      </trkpt>
      <trkpt lat="60.0224996581" lon="23.5368334385">
        <ele>48.2</ele>
        <time>2012-03-13T18:38:08Z</time>
      </trkpt>
      <trkpt lat="60.0226196869" lon="23.5368260624">
        <ele>48.2</ele>
        <time>2012-03-13T18:38:13Z</time>
      </trkpt>
      <trkpt lat="60.0227888337" lon="23.536844754">
        <ele>48.2</ele>
        <time>2012-03-13T18:38:20Z</time>
      </trkpt>
      <trkpt lat="60.0228843873" lon="23.5368673852">
        <ele>47.8</ele>
        <time>2012-03-13T18:38:24Z</time>
      </trkpt>
      <trkpt lat="60.0230174081" lon="23.5369196882">
        <ele>47.2</ele>
        <time>2012-03-13T18:38:29Z</time>
      </trkpt>
      <trkpt lat="60.023197116" lon="23.5370121406">
        <ele>46.6</ele>
        <time>2012-03-13T18:38:36Z</time>
      </trkpt>
      <trkpt lat="60.0232859642" lon="23.5370531281">
        <ele>46.4</ele>
        <time>2012-03-13T18:38:40Z</time>
      </trkpt>
      <trkpt lat="60.0234416999" lon="23.5371131425">
        <ele>45.4</ele>
        <time>2012-03-13T18:38:45Z</time>
      </trkpt>
      <trkpt lat="60.0235751397" lon="23.537177264">
        <ele>44.4</ele>
        <time>2012-03-13T18:38:51Z</time>
      </trkpt>
      <trkpt lat="60.0237631457" lon="23.5372527849">
        <ele>43</ele>
        <time>2012-03-13T18:38:58Z</time>
      </trkpt>
      <trkpt lat="60.0239457873" lon="23.5373247855">
        <ele>41.8</ele>
        <time>2012-03-13T18:39:04Z</time>
      </trkpt>
      <trkpt lat="60.024106636" lon="23.5373972051">
        <ele>39.8</ele>
        <time>2012-03-13T18:39:10Z</time>
      </trkpt>
      <trkpt lat="60.0243082207" lon="23.5374847959">
        <ele>37.4</ele>
        <time>2012-03-13T18:39:17Z</time>
      </trkpt>
      <trkpt lat="60.024490527" lon="23.5375712133">
        <ele>35</ele>
        <time>2012-03-13T18:39:24Z</time>
      </trkpt>
      <trkpt lat="60.0246326002" lon="23.53762184">
        <ele>33</ele>
        <time>2012-03-13T18:39:30Z</time>
      </trkpt>
      <trkpt lat="60.0247428222" lon="23.5376674375">
        <ele>31.6</ele>
        <time>2012-03-13T18:39:34Z</time>
      </trkpt>
      <trkpt lat="60.024868886" lon="23.5377276196">
        <ele>30.4</ele>
        <time>2012-03-13T18:39:39Z</time>
      </trkpt>
      <trkpt lat="60.0250203469" lon="23.5378037272">
        <ele>29.8</ele>
        <time>2012-03-13T18:39:45Z</time>
      </trkpt>
      <trkpt lat="60.0251917568" lon="23.5378820142">
        <ele>28.2</ele>
        <time>2012-03-13T18:39:52Z</time>
      </trkpt>
      <trkpt lat="60.0253537789" lon="23.5379467224">
        <ele>27.6</ele>
        <time>2012-03-13T18:39:58Z</time>
      </trkpt>
      <trkpt lat="60.0255535196" lon="23.5380203993">
        <ele>27.2</ele>
        <time>2012-03-13T18:40:05Z</time>
      </trkpt>
      <trkpt lat="60.0256398531" lon="23.5380613868">
        <ele>27</ele>
        <time>2012-03-13T18:40:10Z</time>
      </trkpt>
      <trkpt lat="60.0257179724" lon="23.5381160368">
        <ele>27</ele>
        <time>2012-03-13T18:40:16Z</time>
      </trkpt>
      <trkpt lat="60.0257644082" lon="23.5381412663">
        <ele>26.8</ele>
        <time>2012-03-13T18:40:23Z</time>
      </trkpt>
      <trkpt lat="60.0257810043" lon="23.5381614667">
        <ele>26.8</ele>
        <time>2012-03-13T18:40:34Z</time>
      </trkpt>
      <trkpt lat="60.0256763144" lon="23.5381316271">
        <ele>26.8</ele>
        <time>2012-03-13T18:40:38Z</time>
      </trkpt>
      <trkpt lat="60.025454697" lon="23.5380459641">
        <ele>26.8</ele>
        <time>2012-03-13T18:40:44Z</time>
      </trkpt>
      <trkpt lat="60.0252408747" lon="23.537977484">
        <ele>26.8</ele>
        <time>2012-03-13T18:40:50Z</time>
      </trkpt>
      <trkpt lat="60.0250340932" lon="23.5378895579">
        <ele>26.8</ele>
        <time>2012-03-13T18:40:56Z</time>
      </trkpt>
      <trkpt lat="60.0246468494" lon="23.5377266137">
        <ele>26.8</ele>
        <time>2012-03-13T18:41:08Z</time>
      </trkpt>
      <trkpt lat="60.0244915328" lon="23.5376509252">
        <ele>26.8</ele>
        <time>2012-03-13T18:41:13Z</time>
      </trkpt>
      <trkpt lat="60.0243681513" lon="23.5375973648">
        <ele>26.8</ele>
        <time>2012-03-13T18:41:17Z</time>
      </trkpt>
      <trkpt lat="60.0242420037" lon="23.5375463191">
        <ele>26.8</ele>
        <time>2012-03-13T18:41:21Z</time>
      </trkpt>
      <trkpt lat="60.0240582724" lon="23.5374789286">
        <ele>26.8</ele>
        <time>2012-03-13T18:41:27Z</time>
      </trkpt>
      <trkpt lat="60.0238998545" lon="23.5374214288">
        <ele>26.8</ele>
        <time>2012-03-13T18:41:32Z</time>
      </trkpt>
      <trkpt lat="60.0237271036" lon="23.5373391185">
        <ele>26.8</ele>
        <time>2012-03-13T18:41:38Z</time>
      </trkpt>
      <trkpt lat="60.0235847789" lon="23.5372734044">
        <ele>26.8</ele>
        <time>2012-03-13T18:41:43Z</time>
      </trkpt>
      <trkpt lat="60.023443963" lon="23.5372154855">
        <ele>27.6</ele>
        <time>2012-03-13T18:41:48Z</time>
      </trkpt>
      <trkpt lat="60.0233150493" lon="23.5371491846">
        <ele>28</ele>
        <time>2012-03-13T18:41:53Z</time>
      </trkpt>
      <trkpt lat="60.0231544521" lon="23.5370593307">
        <ele>29.2</ele>
        <time>2012-03-13T18:41:59Z</time>
      </trkpt>
      <trkpt lat="60.0229539571" lon="23.5369624359">
        <ele>30</ele>
        <time>2012-03-13T18:42:06Z</time>
      </trkpt>
      <trkpt lat="60.0227776019" lon="23.536879036">
        <ele>31.4</ele>
        <time>2012-03-13T18:42:12Z</time>
      </trkpt>
      <trkpt lat="60.0225840638" lon="23.5368414013">
        <ele>32.2</ele>
        <time>2012-03-13T18:42:18Z</time>
      </trkpt>
      <trkpt lat="60.0224341117" lon="23.5368570754">
        <ele>33.4</ele>
        <time>2012-03-13T18:42:23Z</time>
      </trkpt>
      <trkpt lat="60.0222581756" lon="23.5369557304">
        <ele>34.4</ele>
        <time>2012-03-13T18:42:29Z</time>
      </trkpt>
      <trkpt lat="60.0221254063" lon="23.5370665391">
        <ele>35.2</ele>
        <time>2012-03-13T18:42:34Z</time>
      </trkpt>
      <trkpt lat="60.0219675751" lon="23.5372204308">
        <ele>36.2</ele>
        <time>2012-03-13T18:42:40Z</time>
      </trkpt>
      <trkpt lat="60.0218105821" lon="23.5374089397">
        <ele>37.4</ele>
        <time>2012-03-13T18:42:46Z</time>
      </trkpt>
      <trkpt lat="60.0216197263" lon="23.5376173138">
        <ele>38.8</ele>
        <time>2012-03-13T18:42:53Z</time>
      </trkpt>
      <trkpt lat="60.0214601349" lon="23.5377824372">
        <ele>40.4</ele>
        <time>2012-03-13T18:42:59Z</time>
      </trkpt>
      <trkpt lat="60.0212964364" lon="23.5379641568">
        <ele>42</ele>
        <time>2012-03-13T18:43:05Z</time>
      </trkpt>
      <trkpt lat="60.0211260323" lon="23.5381345608">
        <ele>43.6</ele>
        <time>2012-03-13T18:43:11Z</time>
      </trkpt>
      <trkpt lat="60.0209834562" lon="23.5382902965">
        <ele>45</ele>
        <time>2012-03-13T18:43:16Z</time>
      </trkpt>
      <trkpt lat="60.0208274691" lon="23.5384376503">
        <ele>46.4</ele>
        <time>2012-03-13T18:43:21Z</time>
      </trkpt>
      <trkpt lat="60.0207445721" lon="23.538521637">
        <ele>46.8</ele>
        <time>2012-03-13T18:43:24Z</time>
      </trkpt>
      <trkpt lat="60.0207525349" lon="23.5385153505">
        <ele>48</ele>
        <time>2012-03-13T18:43:30Z</time>
      </trkpt>
      <trkpt lat="60.0207864816" lon="23.538475788">
        <ele>49</ele>
        <time>2012-03-13T18:43:35Z</time>
      </trkpt>
      <trkpt lat="60.0208764194" lon="23.538411415">
        <ele>49.8</ele>
        <time>2012-03-13T18:43:42Z</time>
      </trkpt>
      <trkpt lat="60.0209823666" lon="23.5383289371">
        <ele>50</ele>
        <time>2012-03-13T18:43:48Z</time>
      </trkpt>
      <trkpt lat="60.0211057481" lon="23.5382140212">
        <ele>50.2</ele>
        <time>2012-03-13T18:43:53Z</time>
      </trkpt>
      <trkpt lat="60.0214028027" lon="23.5379232531">
        <ele>50.4</ele>
        <time>2012-03-13T18:44:05Z</time>
      </trkpt>
      <trkpt lat="60.0215151201" lon="23.5377518433">
        <ele>50.4</ele>
        <time>2012-03-13T18:44:11Z</time>
      </trkpt>
      <trkpt lat="60.0215232506" lon="23.537729715">
        <ele>50.4</ele>
        <time>2012-03-13T18:44:17Z</time>
      </trkpt>
      <trkpt lat="60.021527693" lon="23.5376515119">
        <ele>50.4</ele>
        <time>2012-03-13T18:44:36Z</time>
      </trkpt>
      <trkpt lat="60.0216229114" lon="23.5375146355">
        <ele>50.4</ele>
        <time>2012-03-13T18:44:44Z</time>
      </trkpt>
      <trkpt lat="60.0217168725" lon="23.5374148071">
        <ele>49.6</ele>
        <time>2012-03-13T18:44:51Z</time>
      </trkpt>
      <trkpt lat="60.0218278488" lon="23.5372982986">
        <ele>49</ele>
        <time>2012-03-13T18:45:00Z</time>
      </trkpt>
      <trkpt lat="60.0219349695" lon="23.5371867356">
        <ele>48.6</ele>
        <time>2012-03-13T18:45:05Z</time>
      </trkpt>
      <trkpt lat="60.0220785515" lon="23.5370559779">
        <ele>48.4</ele>
        <time>2012-03-13T18:45:11Z</time>
      </trkpt>
      <trkpt lat="60.0221260768" lon="23.5370145713">
        <ele>48</ele>
        <time>2012-03-13T18:45:13Z</time>
      </trkpt>
      <trkpt lat="60.0222223849" lon="23.5369431575">
        <ele>47.4</ele>
        <time>2012-03-13T18:45:17Z</time>
      </trkpt>
      <trkpt lat="60.0223790426" lon="23.5368463466">
        <ele>47</ele>
        <time>2012-03-13T18:45:23Z</time>
      </trkpt>
      <trkpt lat="60.0225460938" lon="23.5367958037">
        <ele>46.6</ele>
        <time>2012-03-13T18:45:29Z</time>
      </trkpt>
      <trkpt lat="60.0227325911" lon="23.5368143277">
        <ele>46.4</ele>
        <time>2012-03-13T18:45:36Z</time>
      </trkpt>
      <trkpt lat="60.0228718983" lon="23.5368723305">
        <ele>46.4</ele>
        <time>2012-03-13T18:45:41Z</time>
      </trkpt>
      <trkpt lat="60.0230205094" lon="23.5369478514">
        <ele>45.8</ele>
        <time>2012-03-13T18:45:47Z</time>
      </trkpt>
      <trkpt lat="60.0231990439" lon="23.5370367834">
        <ele>45</ele>
        <time>2012-03-13T18:45:54Z</time>
      </trkpt>
      <trkpt lat="60.0233114451" lon="23.5371048444">
        <ele>44.8</ele>
        <time>2012-03-13T18:45:59Z</time>
      </trkpt>
      <trkpt lat="60.0234243493" lon="23.5371713129">
        <ele>44.4</ele>
        <time>2012-03-13T18:46:03Z</time>
      </trkpt>
      <trkpt lat="60.0235889698" lon="23.5372312434">
        <ele>43.4</ele>
        <time>2012-03-13T18:46:08Z</time>
      </trkpt>
      <trkpt lat="60.0237706894" lon="23.5373095304">
        <ele>42.6</ele>
        <time>2012-03-13T18:46:14Z</time>
      </trkpt>
      <trkpt lat="60.0238939872" lon="23.5373511884">
        <ele>41.8</ele>
        <time>2012-03-13T18:46:18Z</time>
      </trkpt>
      <trkpt lat="60.0240711805" lon="23.5374204229">
        <ele>41</ele>
        <time>2012-03-13T18:46:24Z</time>
      </trkpt>
      <trkpt lat="60.0242487092" lon="23.5375107798">
        <ele>39.8</ele>
        <time>2012-03-13T18:46:30Z</time>
      </trkpt>
      <trkpt lat="60.024448869" lon="23.5376038189">
        <ele>39</ele>
        <time>2012-03-13T18:46:37Z</time>
      </trkpt>
      <trkpt lat="60.0246435805" lon="23.5376932538">
        <ele>37.4</ele>
        <time>2012-03-13T18:46:44Z</time>
      </trkpt>
      <trkpt lat="60.02478272" lon="23.5377464788">
        <ele>36.6</ele>
        <time>2012-03-13T18:46:50Z</time>
      </trkpt>
      <trkpt lat="60.0249111307" lon="23.5378002906">
        <ele>35.6</ele>
        <time>2012-03-13T18:46:54Z</time>
      </trkpt>
      <trkpt lat="60.0250697163" lon="23.537889055">
        <ele>34.6</ele>
        <time>2012-03-13T18:47:00Z</time>
      </trkpt>
      <trkpt lat="60.0251862247" lon="23.5379526736">
        <ele>33.8</ele>
        <time>2012-03-13T18:47:05Z</time>
      </trkpt>
      <trkpt lat="60.0253202513" lon="23.5380255123">
        <ele>33</ele>
        <time>2012-03-13T18:47:10Z</time>
      </trkpt>
      <trkpt lat="60.0254948463" lon="23.5380869516">
        <ele>32.2</ele>
        <time>2012-03-13T18:47:16Z</time>
      </trkpt>
      <trkpt lat="60.0256316389" lon="23.5381614667">
        <ele>32</ele>
        <time>2012-03-13T18:47:21Z</time>
      </trkpt>
      <trkpt lat="60.0256473968" lon="23.5381695133">
        <ele>31.8</ele>
        <time>2012-03-13T18:47:22Z</time>
      </trkpt>
      <trkpt lat="60.0257214928" lon="23.5381913063">
        <ele>30.6</ele>
        <time>2012-03-13T18:47:29Z</time>
      </trkpt>
      <trkpt lat="60.0257517515" lon="23.5381873668">
        <ele>30.2</ele>
        <time>2012-03-13T18:47:32Z</time>
      </trkpt>
      <trkpt lat="60.0257609716" lon="23.5382081539">
        <ele>30</ele>
        <time>2012-03-13T18:47:37Z</time>
      </trkpt>
      <trkpt lat="60.0257586247" lon="23.5382147756">
        <ele>28.8</ele>
        <time>2012-03-13T18:47:45Z</time>
      </trkpt>
      <trkpt lat="60.0254798427" lon="23.5381069844">
        <ele>27.6</ele>
        <time>2012-03-13T18:48:10Z</time>
      </trkpt>
      <trkpt lat="60.025307427" lon="23.5380389233">
        <ele>27.6</ele>
        <time>2012-03-13T18:48:14Z</time>
      </trkpt>
      <trkpt lat="60.0251086921" lon="23.5379607202">
        <ele>27.4</ele>
        <time>2012-03-13T18:48:19Z</time>
      </trkpt>
      <trkpt lat="60.0249079456" lon="23.5378718721">
        <ele>27.4</ele>
        <time>2012-03-13T18:48:24Z</time>
      </trkpt>
      <trkpt lat="60.0247009965" lon="23.5377838621">
        <ele>27.4</ele>
        <time>2012-03-13T18:48:29Z</time>
      </trkpt>
      <trkpt lat="60.024544255" lon="23.5377154658">
        <ele>27.4</ele>
        <time>2012-03-13T18:48:33Z</time>
      </trkpt>
      <trkpt lat="60.024308053" lon="23.5376160565">
        <ele>27.4</ele>
        <time>2012-03-13T18:48:39Z</time>
      </trkpt>
      <trkpt lat="60.0241021936" lon="23.5375220116">
        <ele>26.6</ele>
        <time>2012-03-13T18:48:44Z</time>
      </trkpt>
      <trkpt lat="60.023912595" lon="23.5374496758">
        <ele>26.2</ele>
        <time>2012-03-13T18:48:49Z</time>
      </trkpt>
      <trkpt lat="60.0237164585" lon="23.5373608276">
        <ele>25.8</ele>
        <time>2012-03-13T18:48:55Z</time>
      </trkpt>
      <trkpt lat="60.023525435" lon="23.5372826245">
        <ele>25.6</ele>
        <time>2012-03-13T18:49:01Z</time>
      </trkpt>
      <trkpt lat="60.0233589705" lon="23.537205511">
        <ele>25.6</ele>
        <time>2012-03-13T18:49:06Z</time>
      </trkpt>
      <trkpt lat="60.0232338287" lon="23.5371417248">
        <ele>25.8</ele>
        <time>2012-03-13T18:49:10Z</time>
      </trkpt>
      <trkpt lat="60.0230972038" lon="23.5370745857">
        <ele>26.4</ele>
        <time>2012-03-13T18:49:14Z</time>
      </trkpt>
      <trkpt lat="60.0229213515" lon="23.5369839774">
        <ele>26.8</ele>
        <time>2012-03-13T18:49:19Z</time>
      </trkpt>
      <trkpt lat="60.0227399672" lon="23.536902673">
        <ele>27.4</ele>
        <time>2012-03-13T18:49:24Z</time>
      </trkpt>
      <trkpt lat="60.022551123" lon="23.5368704027">
        <ele>28.4</ele>
        <time>2012-03-13T18:49:29Z</time>
      </trkpt>
      <trkpt lat="60.0223492868" lon="23.5369090432">
        <ele>29.6</ele>
        <time>2012-03-13T18:49:35Z</time>
      </trkpt>
      <trkpt lat="60.0221884382" lon="23.5370222827">
        <ele>30.4</ele>
        <time>2012-03-13T18:49:40Z</time>
      </trkpt>
      <trkpt lat="60.0220347141" lon="23.5371643559">
        <ele>31.4</ele>
        <time>2012-03-13T18:49:45Z</time>
      </trkpt>
      <trkpt lat="60.0218581913" lon="23.537368539">
        <ele>32.6</ele>
        <time>2012-03-13T18:49:51Z</time>
      </trkpt>
      <trkpt lat="60.0216820038" lon="23.5375700398">
        <ele>34.2</ele>
        <time>2012-03-13T18:49:57Z</time>
      </trkpt>
      <trkpt lat="60.0215677585" lon="23.5377075868">
        <ele>35.8</ele>
        <time>2012-03-13T18:50:01Z</time>
      </trkpt>
      <trkpt lat="60.021391068" lon="23.5379059864">
        <ele>37.2</ele>
        <time>2012-03-13T18:50:07Z</time>
      </trkpt>
      <trkpt lat="60.0212390204" lon="23.5380645719">
        <ele>38.6</ele>
        <time>2012-03-13T18:50:12Z</time>
      </trkpt>
      <trkpt lat="60.0210497571" lon="23.538252075">
        <ele>40.6</ele>
        <time>2012-03-13T18:50:18Z</time>
      </trkpt>
      <trkpt lat="60.0209076838" lon="23.5383811563">
        <ele>42</ele>
        <time>2012-03-13T18:50:22Z</time>
      </trkpt>
      <trkpt lat="60.0207893314" lon="23.53850261">
        <ele>43</ele>
        <time>2012-03-13T18:50:26Z</time>
      </trkpt>
      <trkpt lat="60.0207582346" lon="23.5385568409">
        <ele>44.2</ele>
        <time>2012-03-13T18:50:29Z</time>
      </trkpt>
      <trkpt lat="60.0207923489" lon="23.5385600261">
        <ele>45.4</ele>
        <time>2012-03-13T18:50:34Z</time>
      </trkpt>
      <trkpt lat="60.0208040836" lon="23.5385430108">
        <ele>45.6</ele>
        <time>2012-03-13T18:50:35Z</time>
      </trkpt>
      <trkpt lat="60.0208975417" lon="23.5384138457">
        <ele>47.2</ele>
        <time>2012-03-13T18:50:43Z</time>
      </trkpt>
      <trkpt lat="60.0209627529" lon="23.538330362">
        <ele>48.2</ele>
        <time>2012-03-13T18:50:49Z</time>
      </trkpt>
      <trkpt lat="60.0209960291" lon="23.5383053001">
        <ele>48.4</ele>
        <time>2012-03-13T18:50:51Z</time>
      </trkpt>
      <trkpt lat="60.0210895711" lon="23.5382410948">
        <ele>49</ele>
        <time>2012-03-13T18:51:02Z</time>
      </trkpt>
      <trkpt lat="60.0211236854" lon="23.5381995205">
        <ele>49</ele>
        <time>2012-03-13T18:51:05Z</time>
      </trkpt>
      <trkpt lat="60.021255868" lon="23.5380604648">
        <ele>48</ele>
        <time>2012-03-13T18:51:13Z</time>
      </trkpt>
      <trkpt lat="60.0214110169" lon="23.5378950061">
        <ele>47.6</ele>
        <time>2012-03-13T18:51:20Z</time>
      </trkpt>
      <trkpt lat="60.0215625617" lon="23.5377163878">
        <ele>47.4</ele>
        <time>2012-03-13T18:51:26Z</time>
      </trkpt>
      <trkpt lat="60.0216986838" lon="23.5375464867">
        <ele>46.4</ele>
        <time>2012-03-13T18:51:31Z</time>
      </trkpt>
      <trkpt lat="60.0218415951" lon="23.5374017313">
        <ele>45.8</ele>
        <time>2012-03-13T18:51:36Z</time>
      </trkpt>
      <trkpt lat="60.022006048" lon="23.5372156531">
        <ele>45.4</ele>
        <time>2012-03-13T18:51:42Z</time>
      </trkpt>
      <trkpt lat="60.0220744443" lon="23.5371271402">
        <ele>45.4</ele>
        <time>2012-03-13T18:51:46Z</time>
      </trkpt>
      <trkpt lat="60.0221268312" lon="23.5370601689">
        <ele>45.2</ele>
        <time>2012-03-13T18:51:53Z</time>
      </trkpt>
      <trkpt lat="60.0221295972" lon="23.5370511164">
        <ele>45.2</ele>
        <time>2012-03-13T18:51:59Z</time>
      </trkpt>
      <trkpt lat="60.0221821517" lon="23.5369713207">
        <ele>45.2</ele>
        <time>2012-03-13T18:52:05Z</time>
      </trkpt>
      <trkpt lat="60.0222286713" lon="23.5369154135">
        <ele>45</ele>
        <time>2012-03-13T18:52:09Z</time>
      </trkpt>
      <trkpt lat="60.0222764481" lon="23.5368788684">
        <ele>45</ele>
        <time>2012-03-13T18:52:13Z</time>
      </trkpt>
      <trkpt lat="60.022324644" lon="23.5368397249">
        <ele>45</ele>
        <time>2012-03-13T18:52:18Z</time>
      </trkpt>
      <trkpt lat="60.0223365463" lon="23.5368330194">
        <ele>45</ele>
        <time>2012-03-13T18:52:19Z</time>
      </trkpt>
      <trkpt lat="60.0224449243" lon="23.5367842367">
        <ele>45</ele>
        <time>2012-03-13T18:52:27Z</time>
      </trkpt>
      <trkpt lat="60.0225481055" lon="23.5368095501">
        <ele>45</ele>
        <time>2012-03-13T18:52:34Z</time>
      </trkpt>
      <trkpt lat="60.0226487721" lon="23.5368312592">
        <ele>44.4</ele>
        <time>2012-03-13T18:52:39Z</time>
      </trkpt>
      <trkpt lat="60.022778943" lon="23.5368574945">
        <ele>43.8</ele>
        <time>2012-03-13T18:52:44Z</time>
      </trkpt>
      <trkpt lat="60.0229326671" lon="23.5369410621">
        <ele>43.4</ele>
        <time>2012-03-13T18:52:50Z</time>
      </trkpt>
      <trkpt lat="60.0230387819" lon="23.5369846479">
        <ele>43.2</ele>
        <time>2012-03-13T18:52:54Z</time>
      </trkpt>
      <trkpt lat="60.0231744011" lon="23.5370649466">
        <ele>43.2</ele>
        <time>2012-03-13T18:53:00Z</time>
      </trkpt>
      <trkpt lat="60.0233517621" lon="23.5371576504">
        <ele>43</ele>
        <time>2012-03-13T18:53:07Z</time>
      </trkpt>
      <trkpt lat="60.0235162988" lon="23.537206433">
        <ele>43</ele>
        <time>2012-03-13T18:53:14Z</time>
      </trkpt>
      <trkpt lat="60.0237189731" lon="23.5372729015">
        <ele>42</ele>
        <time>2012-03-13T18:53:22Z</time>
      </trkpt>
      <trkpt lat="60.0238174604" lon="23.5373178285">
        <ele>41.6</ele>
        <time>2012-03-13T18:53:26Z</time>
      </trkpt>
      <trkpt lat="60.0239716036" lon="23.5373776752">
        <ele>40.8</ele>
        <time>2012-03-13T18:53:32Z</time>
      </trkpt>
      <trkpt lat="60.0241512277" lon="23.5374579738">
        <ele>39.8</ele>
        <time>2012-03-13T18:53:39Z</time>
      </trkpt>
      <trkpt lat="60.0243284211" lon="23.5375488336">
        <ele>38.2</ele>
        <time>2012-03-13T18:53:46Z</time>
      </trkpt>
      <trkpt lat="60.0246202788" lon="23.5376789207">
        <ele>35.6</ele>
        <time>2012-03-13T18:53:58Z</time>
      </trkpt>
      <trkpt lat="60.0247705663" lon="23.5377505022">
        <ele>34.2</ele>
        <time>2012-03-13T18:54:04Z</time>
      </trkpt>
      <trkpt lat="60.0249175848" lon="23.5378236761">
        <ele>33.4</ele>
        <time>2012-03-13T18:54:10Z</time>
      </trkpt>
      <trkpt lat="60.0250243702" lon="23.5378713692">
        <ele>32</ele>
        <time>2012-03-13T18:54:15Z</time>
      </trkpt>
      <trkpt lat="60.0251494282" lon="23.5379302101">
        <ele>31.2</ele>
        <time>2012-03-13T18:54:20Z</time>
      </trkpt>
      <trkpt lat="60.0252544534" lon="23.5379730416">
        <ele>31</ele>
        <time>2012-03-13T18:54:24Z</time>
      </trkpt>
      <trkpt lat="60.0253984544" lon="23.5380209022">
        <ele>30.2</ele>
        <time>2012-03-13T18:54:29Z</time>
      </trkpt>
      <trkpt lat="60.0255429584" lon="23.5380829283">
        <ele>29.4</ele>
        <time>2012-03-13T18:54:34Z</time>
      </trkpt>
      <trkpt lat="60.0256125281" lon="23.5381110915">
        <ele>29</ele>
        <time>2012-03-13T18:54:38Z</time>
      </trkpt>
      <trkpt lat="60.0257273602" lon="23.538176135">
        <ele>28</ele>
        <time>2012-03-13T18:54:48Z</time>
      </trkpt>
      <trkpt lat="60.0257622289" lon="23.5381935694">
        <ele>27</ele>
        <time>2012-03-13T18:54:55Z</time>
      </trkpt>
      <trkpt lat="60.0257616421" lon="23.5381972574">
        <ele>26.2</ele>
        <time>2012-03-13T18:55:13Z</time>
      </trkpt>
      <trkpt lat="60.0257722033" lon="23.5381959163">
        <ele>25</ele>
        <time>2012-03-13T18:55:23Z</time>
      </trkpt>
      <trkpt lat="60.0257717004" lon="23.5381751292">
        <ele>24.6</ele>
        <time>2012-03-13T18:55:28Z</time>
      </trkpt>
      <trkpt lat="60.0257245103" lon="23.53816549">
        <ele>24.2</ele>
        <time>2012-03-13T18:55:35Z</time>
      </trkpt>
      <trkpt lat="60.0255577105" lon="23.5380908073">
        <ele>24.2</ele>
        <time>2012-03-13T18:55:39Z</time>
      </trkpt>
      <trkpt lat="60.0253445588" lon="23.5380061501">
        <ele>24</ele>
        <time>2012-03-13T18:55:44Z</time>
      </trkpt>
      <trkpt lat="60.025150434" lon="23.537935323">
        <ele>24</ele>
        <time>2012-03-13T18:55:49Z</time>
      </trkpt>
      <trkpt lat="60.0249648587" lon="23.5378546892">
        <ele>24</ele>
        <time>2012-03-13T18:55:53Z</time>
      </trkpt>
      <trkpt lat="60.0249257991" lon="23.537836249">
        <ele>24</ele>
        <time>2012-03-13T18:55:54Z</time>
      </trkpt>
      <trkpt lat="60.0246917764" lon="23.5377344089">
        <ele>24</ele>
        <time>2012-03-13T18:56:00Z</time>
      </trkpt>
      <trkpt lat="60.0246532197" lon="23.5377146276">
        <ele>24</ele>
        <time>2012-03-13T18:56:01Z</time>
      </trkpt>
      <trkpt lat="60.0246158364" lon="23.5377004622">
        <ele>24</ele>
        <time>2012-03-13T18:56:02Z</time>
      </trkpt>
      <trkpt lat="60.0243920397" lon="23.537603316">
        <ele>24</ele>
        <time>2012-03-13T18:56:08Z</time>
      </trkpt>
      <trkpt lat="60.0241949812" lon="23.5375298067">
        <ele>24</ele>
        <time>2012-03-13T18:56:13Z</time>
      </trkpt>
      <trkpt lat="60.0240035386" lon="23.5374586444">
        <ele>24</ele>
        <time>2012-03-13T18:56:18Z</time>
      </trkpt>
      <trkpt lat="60.0238194721" lon="23.5373869791">
        <ele>24</ele>
        <time>2012-03-13T18:56:23Z</time>
      </trkpt>
      <trkpt lat="60.0236176359" lon="23.537285642">
        <ele>24</ele>
        <time>2012-03-13T18:56:29Z</time>
      </trkpt>
      <trkpt lat="60.0234587151" lon="23.5372177486">
        <ele>24.4</ele>
        <time>2012-03-13T18:56:34Z</time>
      </trkpt>
      <trkpt lat="60.0233105231" lon="23.5371479274">
        <ele>25</ele>
        <time>2012-03-13T18:56:39Z</time>
      </trkpt>
      <trkpt lat="60.0231450644" lon="23.5370706462">
        <ele>26.2</ele>
        <time>2012-03-13T18:56:45Z</time>
      </trkpt>
      <trkpt lat="60.0230130495" lon="23.5370001545">
        <ele>26.8</ele>
        <time>2012-03-13T18:56:49Z</time>
      </trkpt>
      <trkpt lat="60.0228336768" lon="23.5369315067">
        <ele>27.8</ele>
        <time>2012-03-13T18:56:54Z</time>
      </trkpt>
      <trkpt lat="60.0226186811" lon="23.5368537227">
        <ele>29</ele>
        <time>2012-03-13T18:57:00Z</time>
      </trkpt>
      <trkpt lat="60.0224492829" lon="23.5368619369">
        <ele>29.8</ele>
        <time>2012-03-13T18:57:05Z</time>
      </trkpt>
      <trkpt lat="60.0222776216" lon="23.5369408106">
        <ele>31</ele>
        <time>2012-03-13T18:57:10Z</time>
      </trkpt>
      <trkpt lat="60.0222444293" lon="23.5369611786">
        <ele>31</ele>
        <time>2012-03-13T18:57:11Z</time>
      </trkpt>
      <trkpt lat="60.0220608657" lon="23.5371195127">
        <ele>32.6</ele>
        <time>2012-03-13T18:57:17Z</time>
      </trkpt>
      <trkpt lat="60.0219079798" lon="23.5372750808">
        <ele>34</ele>
        <time>2012-03-13T18:57:22Z</time>
      </trkpt>
      <trkpt lat="60.021733301" lon="23.5374733127">
        <ele>35.6</ele>
        <time>2012-03-13T18:57:28Z</time>
      </trkpt>
      <trkpt lat="60.0215856119" lon="23.5376370112">
        <ele>37</ele>
        <time>2012-03-13T18:57:33Z</time>
      </trkpt>
      <trkpt lat="60.0214435387" lon="23.5378095945">
        <ele>38.6</ele>
        <time>2012-03-13T18:57:38Z</time>
      </trkpt>
      <trkpt lat="60.0213022199" lon="23.537963151">
        <ele>39.8</ele>
        <time>2012-03-13T18:57:43Z</time>
      </trkpt>
      <trkpt lat="60.021115555" lon="23.5381459602">
        <ele>41.4</ele>
        <time>2012-03-13T18:57:49Z</time>
      </trkpt>
      <trkpt lat="60.0209170716" lon="23.5383718524">
        <ele>43</ele>
        <time>2012-03-13T18:57:55Z</time>
      </trkpt>
      <trkpt lat="60.0207661974" lon="23.5385288454">
        <ele>44.2</ele>
        <time>2012-03-13T18:58:00Z</time>
      </trkpt>
      <trkpt lat="60.0207178338" lon="23.5385671507">
        <ele>45.8</ele>
        <time>2012-03-13T18:58:06Z</time>
      </trkpt>
      <trkpt lat="60.0207113798" lon="23.5386172744">
        <ele>51.6</ele>
        <time>2012-03-13T18:58:51Z</time>
      </trkpt>
      <trkpt lat="60.0207716456" lon="23.5385876025">
        <ele>51.8</ele>
        <time>2012-03-13T18:58:57Z</time>
      </trkpt>
      <trkpt lat="60.0209215978" lon="23.5384569287">
        <ele>51.8</ele>
        <time>2012-03-13T18:59:11Z</time>
      </trkpt>
      <trkpt lat="60.0209590649" lon="23.5384138457">
        <ele>52</ele>
        <time>2012-03-13T18:59:14Z</time>
      </trkpt>
      <trkpt lat="60.0210450632" lon="23.5383113351">
        <ele>52</ele>
        <time>2012-03-13T18:59:19Z</time>
      </trkpt>
      <trkpt lat="60.0211831969" lon="23.5381990176">
        <ele>51.2</ele>
        <time>2012-03-13T18:59:24Z</time>
      </trkpt>
      <trkpt lat="60.0213273656" lon="23.538042779">
        <ele>50.6</ele>
        <time>2012-03-13T18:59:29Z</time>
      </trkpt>
      <trkpt lat="60.0214978534" lon="23.5378335668">
        <ele>50.2</ele>
        <time>2012-03-13T18:59:35Z</time>
      </trkpt>
      <trkpt lat="60.02166524" lon="23.5376173138">
        <ele>50</ele>
        <time>2012-03-13T18:59:41Z</time>
      </trkpt>
      <trkpt lat="60.0218213109" lon="23.5374238595">
        <ele>50</ele>
        <time>2012-03-13T18:59:47Z</time>
      </trkpt>
      <trkpt lat="60.0219192954" lon="23.5373064291">
        <ele>50</ele>
        <time>2012-03-13T18:59:53Z</time>
      </trkpt>
      <trkpt lat="60.0219293536" lon="23.5372905873">
        <ele>50</ele>
        <time>2012-03-13T18:59:54Z</time>
      </trkpt>
      <trkpt lat="60.0219813214" lon="23.5372226939">
        <ele>49.8</ele>
        <time>2012-03-13T18:59:59Z</time>
      </trkpt>
      <trkpt lat="60.0220635479" lon="23.5371131425">
        <ele>48.8</ele>
        <time>2012-03-13T19:00:07Z</time>
      </trkpt>
      <trkpt lat="60.0220716783" lon="23.5371044253">
        <ele>48.8</ele>
        <time>2012-03-13T19:00:08Z</time>
      </trkpt>
      <trkpt lat="60.0220742767" lon="23.5370911819">
        <ele>48.2</ele>
        <time>2012-03-13T19:00:15Z</time>
      </trkpt>
      <trkpt lat="60.0221141745" lon="23.5369911858">
        <ele>47.8</ele>
        <time>2012-03-13T19:00:51Z</time>
      </trkpt>
      <trkpt lat="60.0222295933" lon="23.5368988173">
        <ele>47.8</ele>
        <time>2012-03-13T19:00:58Z</time>
      </trkpt>
      <trkpt lat="60.0223426651" lon="23.5368212009">
        <ele>47.8</ele>
        <time>2012-03-13T19:01:02Z</time>
      </trkpt>
      <trkpt lat="60.0225206129" lon="23.5367809678">
        <ele>47.8</ele>
        <time>2012-03-13T19:01:09Z</time>
      </trkpt>
      <trkpt lat="60.022657154" lon="23.5368008329">
        <ele>47</ele>
        <time>2012-03-13T19:01:14Z</time>
      </trkpt>
      <trkpt lat="60.0228077768" lon="23.5368411498">
        <ele>46.6</ele>
        <time>2012-03-13T19:01:19Z</time>
      </trkpt>
      <trkpt lat="60.0228622591" lon="23.5368581651">
        <ele>46.4</ele>
        <time>2012-03-13T19:01:21Z</time>
      </trkpt>
      <trkpt lat="60.0229756662" lon="23.5369283216">
        <ele>46.2</ele>
        <time>2012-03-13T19:01:26Z</time>
      </trkpt>
      <trkpt lat="60.023095695" lon="23.537001747">
        <ele>45.6</ele>
        <time>2012-03-13T19:01:31Z</time>
      </trkpt>
      <trkpt lat="60.0232826114" lon="23.5370759268">
        <ele>44.8</ele>
        <time>2012-03-13T19:01:37Z</time>
      </trkpt>
      <trkpt lat="60.02340549" lon="23.5371212729">
        <ele>44.4</ele>
        <time>2012-03-13T19:01:41Z</time>
      </trkpt>
      <trkpt lat="60.0235579568" lon="23.537194866">
        <ele>43.8</ele>
        <time>2012-03-13T19:01:47Z</time>
      </trkpt>
      <trkpt lat="60.0237085796" lon="23.5372782659">
        <ele>42.6</ele>
        <time>2012-03-13T19:01:53Z</time>
      </trkpt>
      <trkpt lat="60.0238602919" lon="23.5373448182">
        <ele>41.2</ele>
        <time>2012-03-13T19:01:59Z</time>
      </trkpt>
      <trkpt lat="60.0240585239" lon="23.5374204229">
        <ele>39.6</ele>
        <time>2012-03-13T19:02:06Z</time>
      </trkpt>
      <trkpt lat="60.0242526487" lon="23.5375177368">
        <ele>38.4</ele>
        <time>2012-03-13T19:02:13Z</time>
      </trkpt>
      <trkpt lat="60.024390028" lon="23.53758387">
        <ele>37</ele>
        <time>2012-03-13T19:02:19Z</time>
      </trkpt>
      <trkpt lat="60.0244077977" lon="23.5375922519">
        <ele>37</ele>
        <time>2012-03-13T19:02:20Z</time>
      </trkpt>
      <trkpt lat="60.0245490327" lon="23.5376622407">
        <ele>36.2</ele>
        <time>2012-03-13T19:02:26Z</time>
      </trkpt>
      <trkpt lat="60.0247292435" lon="23.5377407791">
        <ele>35.2</ele>
        <time>2012-03-13T19:02:33Z</time>
      </trkpt>
      <trkpt lat="60.0248941993" lon="23.5378178088">
        <ele>34.4</ele>
        <time>2012-03-13T19:02:40Z</time>
      </trkpt>
      <trkpt lat="60.0250103724" lon="23.5378739675">
        <ele>34</ele>
        <time>2012-03-13T19:02:45Z</time>
      </trkpt>
      <trkpt lat="60.0252110351" lon="23.5379836028">
        <ele>32.8</ele>
        <time>2012-03-13T19:02:53Z</time>
      </trkpt>
      <trkpt lat="60.0253571316" lon="23.5380677571">
        <ele>32.2</ele>
        <time>2012-03-13T19:02:59Z</time>
      </trkpt>
      <trkpt lat="60.0254720475" lon="23.5381220718">
        <ele>32</ele>
        <time>2012-03-13T19:03:03Z</time>
      </trkpt>
      <trkpt lat="60.0255720436" lon="23.5381541745">
        <ele>30.6</ele>
        <time>2012-03-13T19:03:10Z</time>
      </trkpt>
      <trkpt lat="60.0255836106" lon="23.5381517437">
        <ele>30.6</ele>
        <time>2012-03-13T19:03:11Z</time>
      </trkpt>
      <trkpt lat="60.0256717044" lon="23.5381933179">
        <ele>30</ele>
        <time>2012-03-13T19:03:18Z</time>
      </trkpt>
      <trkpt lat="60.0256924915" lon="23.5381989338">
        <ele>29.8</ele>
        <time>2012-03-13T19:03:20Z</time>
      </trkpt>
      <trkpt lat="60.0257586247" lon="23.5382223193">
        <ele>29.6</ele>
        <time>2012-03-13T19:03:26Z</time>
      </trkpt>
      <trkpt lat="60.0257665875" lon="23.5382224031">
        <ele>29.6</ele>
        <time>2012-03-13T19:03:31Z</time>
      </trkpt>
      <trkpt lat="60.0256203233" lon="23.5381588683">
        <ele>29.4</ele>
        <time>2012-03-13T19:04:06Z</time>
      </trkpt>
      <trkpt lat="60.0254236001" lon="23.5380685114">
        <ele>29.8</ele>
        <time>2012-03-13T19:04:10Z</time>
      </trkpt>
      <trkpt lat="60.0253340814" lon="23.5380317149">
        <ele>30</ele>
        <time>2012-03-13T19:04:11Z</time>
      </trkpt>
      <trkpt lat="60.0251991328" lon="23.5379965947">
        <ele>30.4</ele>
        <time>2012-03-13T19:04:14Z</time>
      </trkpt>
      <trkpt lat="60.0249577341" lon="23.5378853669">
        <ele>30.8</ele>
        <time>2012-03-13T19:04:19Z</time>
      </trkpt>
      <trkpt lat="60.0249092029" lon="23.5378649151">
        <ele>30.8</ele>
        <time>2012-03-13T19:04:20Z</time>
      </trkpt>
      <trkpt lat="60.0246708217" lon="23.5377599737">
        <ele>31</ele>
        <time>2012-03-13T19:04:25Z</time>
      </trkpt>
      <trkpt lat="60.0246240507" lon="23.5377413659">
        <ele>31</ele>
        <time>2012-03-13T19:04:26Z</time>
      </trkpt>
      <trkpt lat="60.0243994158" lon="23.5376376818">
        <ele>31.8</ele>
        <time>2012-03-13T19:04:31Z</time>
      </trkpt>
      <trkpt lat="60.024355327" lon="23.5376172299">
        <ele>32</ele>
        <time>2012-03-13T19:04:32Z</time>
      </trkpt>
      <trkpt lat="60.0241751999" lon="23.537539865">
        <ele>32.4</ele>
        <time>2012-03-13T19:04:36Z</time>
      </trkpt>
      <trkpt lat="60.0239989286" lon="23.5374633383">
        <ele>32.8</ele>
        <time>2012-03-13T19:04:40Z</time>
      </trkpt>
      <trkpt lat="60.0239124274" lon="23.5374362647">
        <ele>32.8</ele>
        <time>2012-03-13T19:04:42Z</time>
      </trkpt>
      <trkpt lat="60.0237945778" lon="23.5373831235">
        <ele>33.4</ele>
        <time>2012-03-13T19:04:45Z</time>
      </trkpt>
      <trkpt lat="60.0236478108" lon="23.5373039145">
        <ele>34.2</ele>
        <time>2012-03-13T19:04:49Z</time>
      </trkpt>
      <trkpt lat="60.0234112736" lon="23.537193944">
        <ele>34.8</ele>
        <time>2012-03-13T19:04:56Z</time>
      </trkpt>
      <trkpt lat="60.0232294701" lon="23.5371097059">
        <ele>36</ele>
        <time>2012-03-13T19:05:01Z</time>
      </trkpt>
      <trkpt lat="60.0230485887" lon="23.5370145713">
        <ele>36.6</ele>
        <time>2012-03-13T19:05:06Z</time>
      </trkpt>
      <trkpt lat="60.0229634286" lon="23.5369817143">
        <ele>37</ele>
        <time>2012-03-13T19:05:08Z</time>
      </trkpt>
      <trkpt lat="60.0227382908" lon="23.5369165031">
        <ele>38.2</ele>
        <time>2012-03-13T19:05:13Z</time>
      </trkpt>
      <trkpt lat="60.0226109697" lon="23.5368816344">
        <ele>39</ele>
        <time>2012-03-13T19:05:16Z</time>
      </trkpt>
      <trkpt lat="60.0225294139" lon="23.5368755156">
        <ele>39.4</ele>
        <time>2012-03-13T19:05:18Z</time>
      </trkpt>
      <trkpt lat="60.0223727561" lon="23.5369108872">
        <ele>40.2</ele>
        <time>2012-03-13T19:05:22Z</time>
      </trkpt>
      <trkpt lat="60.022159353" lon="23.5370718197">
        <ele>41.8</ele>
        <time>2012-03-13T19:05:28Z</time>
      </trkpt>
      <trkpt lat="60.0219832493" lon="23.537280529">
        <ele>42.6</ele>
        <time>2012-03-13T19:05:33Z</time>
      </trkpt>
      <trkpt lat="60.0219130928" lon="23.5373670302">
        <ele>42.8</ele>
        <time>2012-03-13T19:05:35Z</time>
      </trkpt>
      <trkpt lat="60.0217380787" lon="23.5375754881">
        <ele>44.2</ele>
        <time>2012-03-13T19:05:40Z</time>
      </trkpt>
      <trkpt lat="60.0215169642" lon="23.5378412781">
        <ele>45.2</ele>
        <time>2012-03-13T19:05:46Z</time>
      </trkpt>
      <trkpt lat="60.0213335682" lon="23.5380781506">
        <ele>46.4</ele>
        <time>2012-03-13T19:05:51Z</time>
      </trkpt>
      <trkpt lat="60.0211529382" lon="23.5382788971">
        <ele>47</ele>
        <time>2012-03-13T19:05:56Z</time>
      </trkpt>
      <trkpt lat="60.0210707118" lon="23.5383623809">
        <ele>47.4</ele>
        <time>2012-03-13T19:05:58Z</time>
      </trkpt>
      <trkpt lat="60.0209059236" lon="23.5385330363">
        <ele>48.6</ele>
        <time>2012-03-13T19:06:02Z</time>
      </trkpt>
      <trkpt lat="60.0207638504" lon="23.5386181126">
        <ele>49.2</ele>
        <time>2012-03-13T19:06:07Z</time>
      </trkpt>
      <trkpt lat="60.020759408" lon="23.5386037796">
        <ele>49.2</ele>
        <time>2012-03-13T19:06:08Z</time>
      </trkpt>
      <trkpt lat="60.0208012337" lon="23.5385802264">
        <ele>51.4</ele>
        <time>2012-03-13T19:06:19Z</time>
      </trkpt>
      <trkpt lat="60.02085295" lon="23.538512333">
        <ele>51.8</ele>
        <time>2012-03-13T19:06:25Z</time>
      </trkpt>
      <trkpt lat="60.0209260402" lon="23.5384539112">
        <ele>52</ele>
        <time>2012-03-13T19:06:31Z</time>
      </trkpt>
      <trkpt lat="60.0209699614" lon="23.5383748699">
        <ele>52.2</ele>
        <time>2012-03-13T19:06:36Z</time>
      </trkpt>
      <trkpt lat="60.0209813607" lon="23.5383645601">
        <ele>52.2</ele>
        <time>2012-03-13T19:06:37Z</time>
      </trkpt>
      <trkpt lat="60.0210841228" lon="23.5382483032">
        <ele>52.2</ele>
        <time>2012-03-13T19:06:46Z</time>
      </trkpt>
      <trkpt lat="60.0211872202" lon="23.5381166235">
        <ele>52.4</ele>
        <time>2012-03-13T19:06:55Z</time>
      </trkpt>
      <trkpt lat="60.021271123" lon="23.5380096705">
        <ele>52.4</ele>
        <time>2012-03-13T19:07:02Z</time>
      </trkpt>
      <trkpt lat="60.0213246834" lon="23.5379238398">
        <ele>52.4</ele>
        <time>2012-03-13T19:07:08Z</time>
      </trkpt>
      <trkpt lat="60.0213493262" lon="23.5379048129">
        <ele>52.4</ele>
        <time>2012-03-13T19:07:17Z</time>
      </trkpt>
      <trkpt lat="60.0213650003" lon="23.5379355745">
        <ele>52.4</ele>
        <time>2012-03-13T19:07:33Z</time>
      </trkpt>
      <trkpt lat="60.0213469792" lon="23.5379976006">
        <ele>52.4</ele>
        <time>2012-03-13T19:09:27Z</time>
      </trkpt>
      <trkpt lat="60.0213086739" lon="23.5380490654">
        <ele>52.4</ele>
        <time>2012-03-13T19:09:34Z</time>
      </trkpt>
      <trkpt lat="60.0212834444" lon="23.5380712775">
        <ele>52.4</ele>
        <time>2012-03-13T19:09:39Z</time>
      </trkpt>
      <trkpt lat="60.0212375116" lon="23.5381134384">
        <ele>52.4</ele>
        <time>2012-03-13T19:09:45Z</time>
      </trkpt>
      <trkpt lat="60.0212071691" lon="23.5381581978">
        <ele>52.4</ele>
        <time>2012-03-13T19:09:50Z</time>
      </trkpt>
      <trkpt lat="60.021204906" lon="23.5381660768">
        <ele>52.4</ele>
        <time>2012-03-13T19:09:51Z</time>
      </trkpt>
      <trkpt lat="60.0210301434" lon="23.5383366484">
        <ele>52.4</ele>
        <time>2012-03-13T19:10:09Z</time>
      </trkpt>
      <trkpt lat="60.0209524432" lon="23.538415103">
        <ele>52.4</ele>
        <time>2012-03-13T19:10:17Z</time>
      </trkpt>
      <trkpt lat="60.020866864" lon="23.5384762071">
        <ele>52.4</ele>
        <time>2012-03-13T19:10:24Z</time>
      </trkpt>
      <trkpt lat="60.0208266309" lon="23.5385083097">
        <ele>52.4</ele>
        <time>2012-03-13T19:10:29Z</time>
      </trkpt>
      <trkpt lat="60.0208116273" lon="23.5385280072">
        <ele>52.4</ele>
        <time>2012-03-13T19:10:32Z</time>
      </trkpt>
      <trkpt lat="60.0207298199" lon="23.538637391">
        <ele>53.4</ele>
        <time>2012-03-13T19:10:41Z</time>
      </trkpt>
      <trkpt lat="60.0207196778" lon="23.5386514726">
        <ele>53.6</ele>
        <time>2012-03-13T19:10:42Z</time>
      </trkpt>
      <trkpt lat="60.0206268902" lon="23.538753145">
        <ele>54</ele>
        <time>2012-03-13T19:10:51Z</time>
      </trkpt>
      <trkpt lat="60.0205390479" lon="23.5388433343">
        <ele>54.2</ele>
        <time>2012-03-13T19:10:58Z</time>
      </trkpt>
      <trkpt lat="60.0204291612" lon="23.5389572443">
        <ele>54.2</ele>
        <time>2012-03-13T19:11:05Z</time>
      </trkpt>
      <trkpt lat="60.0202554044" lon="23.5391329289">
        <ele>54.8</ele>
        <time>2012-03-13T19:11:14Z</time>
      </trkpt>
      <trkpt lat="60.0201539834" lon="23.5392542988">
        <ele>55.4</ele>
        <time>2012-03-13T19:11:19Z</time>
      </trkpt>
      <trkpt lat="60.0200124131" lon="23.5394041672">
        <ele>56</ele>
        <time>2012-03-13T19:11:26Z</time>
      </trkpt>
      <trkpt lat="60.019861958" lon="23.5395889881">
        <ele>57.2</ele>
        <time>2012-03-13T19:11:33Z</time>
      </trkpt>
      <trkpt lat="60.0197379897" lon="23.539759895">
        <ele>58.6</ele>
        <time>2012-03-13T19:11:39Z</time>
      </trkpt>
      <trkpt lat="60.0195965032" lon="23.5399650001">
        <ele>59.6</ele>
        <time>2012-03-13T19:11:46Z</time>
      </trkpt>
      <trkpt lat="60.0194904722" lon="23.5401131083">
        <ele>60.8</ele>
        <time>2012-03-13T19:11:51Z</time>
      </trkpt>
      <trkpt lat="60.0193617262" lon="23.5402939897">
        <ele>61.8</ele>
        <time>2012-03-13T19:11:57Z</time>
      </trkpt>
      <trkpt lat="60.0192171384" lon="23.5405211392">
        <ele>62.4</ele>
        <time>2012-03-13T19:12:05Z</time>
      </trkpt>
      <trkpt lat="60.0191104369" lon="23.5407378951">
        <ele>62.6</ele>
        <time>2012-03-13T19:12:11Z</time>
      </trkpt>
      <trkpt lat="60.0189992929" lon="23.541005613">
        <ele>62.8</ele>
        <time>2012-03-13T19:12:18Z</time>
      </trkpt>
      <trkpt lat="60.0189023143" lon="23.5412551422">
        <ele>62.8</ele>
        <time>2012-03-13T19:12:24Z</time>
      </trkpt>
      <trkpt lat="60.0188288888" lon="23.5414759214">
        <ele>62.8</ele>
        <time>2012-03-13T19:12:29Z</time>
      </trkpt>
      <trkpt lat="60.0187098658" lon="23.5417883148">
        <ele>62.8</ele>
        <time>2012-03-13T19:12:36Z</time>
      </trkpt>
      <trkpt lat="60.0186080258" lon="23.5420355809">
        <ele>62.8</ele>
        <time>2012-03-13T19:12:42Z</time>
      </trkpt>
      <trkpt lat="60.0184957921" lon="23.5422596291">
        <ele>62.8</ele>
        <time>2012-03-13T19:12:48Z</time>
      </trkpt>
      <trkpt lat="60.0183610112" lon="23.5424436118">
        <ele>62.8</ele>
        <time>2012-03-13T19:12:54Z</time>
      </trkpt>
      <trkpt lat="60.0182210334" lon="23.5425623833">
        <ele>62.8</ele>
        <time>2012-03-13T19:13:00Z</time>
      </trkpt>
      <trkpt lat="60.0180399006" lon="23.5426462023">
        <ele>62.4</ele>
        <time>2012-03-13T19:13:07Z</time>
      </trkpt>
      <trkpt lat="60.0178394894" lon="23.5427021096">
        <ele>61.6</ele>
        <time>2012-03-13T19:13:15Z</time>
      </trkpt>
      <trkpt lat="60.0176882799" lon="23.5427483777">
        <ele>61.2</ele>
        <time>2012-03-13T19:13:21Z</time>
      </trkpt>
      <trkpt lat="60.0175291076" lon="23.5427933046">
        <ele>61</ele>
        <time>2012-03-13T19:13:27Z</time>
      </trkpt>
      <trkpt lat="60.0174533352" lon="23.5428111581">
        <ele>61</ele>
        <time>2012-03-13T19:13:30Z</time>
      </trkpt>
      <trkpt lat="60.0173759703" lon="23.5428279219">
        <ele>61</ele>
        <time>2012-03-13T19:13:33Z</time>
      </trkpt>
      <trkpt lat="60.017202465" lon="23.5428692447">
        <ele>60.8</ele>
        <time>2012-03-13T19:13:40Z</time>
      </trkpt>
      <trkpt lat="60.017051004" lon="23.5429083043">
        <ele>60.8</ele>
        <time>2012-03-13T19:13:46Z</time>
      </trkpt>
      <trkpt lat="60.0168629142" lon="23.5429580928">
        <ele>60.8</ele>
        <time>2012-03-13T19:13:53Z</time>
      </trkpt>
      <trkpt lat="60.0166934322" lon="23.5429967334">
        <ele>60.2</ele>
        <time>2012-03-13T19:14:00Z</time>
      </trkpt>
      <trkpt lat="60.01656477" lon="23.5430375532">
        <ele>59.6</ele>
        <time>2012-03-13T19:14:05Z</time>
      </trkpt>
      <trkpt lat="60.0163831342" lon="23.5430893534">
        <ele>59.2</ele>
        <time>2012-03-13T19:14:12Z</time>
      </trkpt>
      <trkpt lat="60.0162231238" lon="23.5431325201">
        <ele>59</ele>
        <time>2012-03-13T19:14:18Z</time>
      </trkpt>
      <trkpt lat="60.0160601796" lon="23.5431736753">
        <ele>58.4</ele>
        <time>2012-03-13T19:14:24Z</time>
      </trkpt>
      <trkpt lat="60.015856248" lon="23.5432338573">
        <ele>57.4</ele>
        <time>2012-03-13T19:14:32Z</time>
      </trkpt>
      <trkpt lat="60.0156798928" lon="23.5433139883">
        <ele>57.2</ele>
        <time>2012-03-13T19:14:39Z</time>
      </trkpt>
      <trkpt lat="60.0155041244" lon="23.5434183429">
        <ele>57</ele>
        <time>2012-03-13T19:14:46Z</time>
      </trkpt>
      <trkpt lat="60.0153857719" lon="23.5434980548">
        <ele>56.8</ele>
        <time>2012-03-13T19:14:51Z</time>
      </trkpt>
      <trkpt lat="60.0152126857" lon="23.5436319976">
        <ele>56.8</ele>
        <time>2012-03-13T19:14:58Z</time>
      </trkpt>
      <trkpt lat="60.0149261086" lon="23.5438590632">
        <ele>56.8</ele>
        <time>2012-03-13T19:15:10Z</time>
      </trkpt>
      <trkpt lat="60.0147805149" lon="23.5439624121">
        <ele>56.8</ele>
        <time>2012-03-13T19:15:16Z</time>
      </trkpt>
      <trkpt lat="60.0146326582" lon="23.544024941">
        <ele>56.8</ele>
        <time>2012-03-13T19:15:22Z</time>
      </trkpt>
      <trkpt lat="60.014515144" lon="23.5440344964">
        <ele>56.8</ele>
        <time>2012-03-13T19:15:27Z</time>
      </trkpt>
      <trkpt lat="60.0143331729" lon="23.5440261983">
        <ele>56.8</ele>
        <time>2012-03-13T19:15:34Z</time>
      </trkpt>
      <trkpt lat="60.0141799518" lon="23.5439958558">
        <ele>56.8</ele>
        <time>2012-03-13T19:15:40Z</time>
      </trkpt>
      <trkpt lat="60.0140800396" lon="23.5439842888">
        <ele>56.8</ele>
        <time>2012-03-13T19:15:44Z</time>
      </trkpt>
      <trkpt lat="60.0139269861" lon="23.5439345003">
        <ele>56.8</ele>
        <time>2012-03-13T19:15:50Z</time>
      </trkpt>
      <trkpt lat="60.0138052809" lon="23.5439080973">
        <ele>56.8</ele>
        <time>2012-03-13T19:15:55Z</time>
      </trkpt>
      <trkpt lat="60.0136539876" lon="23.5438729772">
        <ele>56.8</ele>
        <time>2012-03-13T19:16:01Z</time>
      </trkpt>
      <trkpt lat="60.0135386526" lon="23.5438513519">
        <ele>56.8</ele>
        <time>2012-03-13T19:16:05Z</time>
      </trkpt>
      <trkpt lat="60.0133859344" lon="23.5438039942">
        <ele>57.8</ele>
        <time>2012-03-13T19:16:11Z</time>
      </trkpt>
      <trkpt lat="60.0132611279" lon="23.5437836261">
        <ele>58.2</ele>
        <time>2012-03-13T19:16:16Z</time>
      </trkpt>
      <trkpt lat="60.0131048893" lon="23.5437352626">
        <ele>59.4</ele>
        <time>2012-03-13T19:16:22Z</time>
      </trkpt>
      <trkpt lat="60.0129359102" lon="23.5436785171">
        <ele>60.4</ele>
        <time>2012-03-13T19:16:29Z</time>
      </trkpt>
      <trkpt lat="60.012807751" lon="23.5436596578">
        <ele>61.4</ele>
        <time>2012-03-13T19:16:34Z</time>
      </trkpt>
      <trkpt lat="60.0126337427" lon="23.5436139765">
        <ele>62.2</ele>
        <time>2012-03-13T19:16:41Z</time>
      </trkpt>
      <trkpt lat="60.0124528613" lon="23.5435733243">
        <ele>62.6</ele>
        <time>2012-03-13T19:16:48Z</time>
      </trkpt>
      <trkpt lat="60.0122728181" lon="23.5435325044">
        <ele>62.8</ele>
        <time>2012-03-13T19:16:55Z</time>
      </trkpt>
      <trkpt lat="60.0121219439" lon="23.5435125555">
        <ele>63.2</ele>
        <time>2012-03-13T19:17:01Z</time>
      </trkpt>
      <trkpt lat="60.0119412301" lon="23.5434837218">
        <ele>64</ele>
        <time>2012-03-13T19:17:08Z</time>
      </trkpt>
      <trkpt lat="60.0117589238" lon="23.5434597495">
        <ele>64.6</ele>
        <time>2012-03-13T19:17:15Z</time>
      </trkpt>
      <trkpt lat="60.0116312675" lon="23.5434541336">
        <ele>64.8</ele>
        <time>2012-03-13T19:17:20Z</time>
      </trkpt>
      <trkpt lat="60.0114756994" lon="23.5434540498">
        <ele>64.8</ele>
        <time>2012-03-13T19:17:26Z</time>
      </trkpt>
      <trkpt lat="60.0112919682" lon="23.5434881642">
        <ele>65</ele>
        <time>2012-03-13T19:17:33Z</time>
      </trkpt>
      <trkpt lat="60.0111375736" lon="23.5435517828">
        <ele>65</ele>
        <time>2012-03-13T19:17:39Z</time>
      </trkpt>
      <trkpt lat="60.0110165389" lon="23.5436185027">
        <ele>65</ele>
        <time>2012-03-13T19:17:44Z</time>
      </trkpt>
      <trkpt lat="60.0108555226" lon="23.5437542895">
        <ele>65</ele>
        <time>2012-03-13T19:17:51Z</time>
      </trkpt>
      <trkpt lat="60.0107094261" lon="23.5438833707">
        <ele>65</ele>
        <time>2012-03-13T19:17:57Z</time>
      </trkpt>
      <trkpt lat="60.0105660956" lon="23.5439964426">
        <ele>64</ele>
        <time>2012-03-13T19:18:03Z</time>
      </trkpt>
      <trkpt lat="60.0103831188" lon="23.5441609793">
        <ele>63</ele>
        <time>2012-03-13T19:18:11Z</time>
      </trkpt>
      <trkpt lat="60.0103279658" lon="23.5442118574">
        <ele>62.2</ele>
        <time>2012-03-13T19:18:15Z</time>
      </trkpt>
      <trkpt lat="60.0102673647" lon="23.5442790802">
        <ele>60.8</ele>
        <time>2012-03-13T19:18:22Z</time>
      </trkpt>
      <trkpt lat="60.0102595695" lon="23.5442876298">
        <ele>60.6</ele>
        <time>2012-03-13T19:18:23Z</time>
      </trkpt>
      <trkpt lat="60.0102744893" lon="23.5442466423">
        <ele>60.2</ele>
        <time>2012-03-13T19:18:26Z</time>
      </trkpt>
      <trkpt lat="60.0102948573" lon="23.544231052">
        <ele>60</ele>
        <time>2012-03-13T19:18:27Z</time>
      </trkpt>
      <trkpt lat="60.0104428817" lon="23.5441000429">
        <ele>59.2</ele>
        <time>2012-03-13T19:18:34Z</time>
      </trkpt>
      <trkpt lat="60.0105873018" lon="23.5439695367">
        <ele>59</ele>
        <time>2012-03-13T19:18:40Z</time>
      </trkpt>
      <trkpt lat="60.0107299618" lon="23.5438364321">
        <ele>58.8</ele>
        <time>2012-03-13T19:18:46Z</time>
      </trkpt>
      <trkpt lat="60.0108459673" lon="23.5437298143">
        <ele>58.8</ele>
        <time>2012-03-13T19:18:51Z</time>
      </trkpt>
      <trkpt lat="60.0110140244" lon="23.5436217716">
        <ele>59.6</ele>
        <time>2012-03-13T19:18:57Z</time>
      </trkpt>
      <trkpt lat="60.0108527566" lon="23.5437502662">
        <ele>60.6</ele>
        <time>2012-03-13T19:19:10Z</time>
      </trkpt>
      <trkpt lat="60.0106916565" lon="23.5438813591">
        <ele>60.8</ele>
        <time>2012-03-13T19:19:17Z</time>
      </trkpt>
      <trkpt lat="60.0105261978" lon="23.544026366">
        <ele>60.8</ele>
        <time>2012-03-13T19:19:24Z</time>
      </trkpt>
      <trkpt lat="60.0104295545" lon="23.544114795">
        <ele>60.8</ele>
        <time>2012-03-13T19:19:28Z</time>
      </trkpt>
      <trkpt lat="60.0103536145" lon="23.5441888072">
        <ele>60.8</ele>
        <time>2012-03-13T19:19:31Z</time>
      </trkpt>
      <trkpt lat="60.010259821" lon="23.5442779906">
        <ele>60.8</ele>
        <time>2012-03-13T19:19:36Z</time>
      </trkpt>
      <trkpt lat="60.0102346753" lon="23.5443017114">
        <ele>60.8</ele>
        <time>2012-03-13T19:19:42Z</time>
      </trkpt>
    </trkseg>
  </trk>
</gpx>